Flight Track Log - Related Links

Times and Time Zones

All times are in EDT time to prevent confusion due to time zone crossing. See the DAL268 flight status page for this flight to view local times or setup timezone preferences in your user account.

Time Position Orientation Groundspeed Altitude Reporting Facility
EDT Latitude Longitude Course Direction KTS MPH feet Rate Location/Type
Sat 11:55:11 PM 40.6370 -73.7800 264° West  Level FlightAware ADS-B
Sun 12:14:00 AM 40.8650 -73.5684 37° Northeast  Level FlightAware Approximate
Sun 12:15:00 AM 40.9742 -73.4608 30° Northeast  Level FlightAware Approximate
Sun 12:16:00 AM 41.0961 -73.3661 30° Northeast  Level FlightAware Approximate
Sun 12:17:00 AM 41.2153 -73.2680 37° Northeast  Level FlightAware Approximate
Sun 12:18:00 AM 41.3287 -73.1607 21° North  Level FlightAware Approximate
Sun 12:19:00 AM 41.4134 -73.0232 56° Northeast  Level FlightAware Approximate
Sun 12:20:00 AM 41.4852 -72.8639 48° Northeast  Level FlightAware Approximate
Sun 12:30:00 AM 40.8861 -73.5473 37° Northeast  Level FlightAware Approximate
Sun 12:31:01 AM 40.6400 -73.7990 122° Southeast 140 161  Level FlightAware ADS-B
Sun 12:31:20 AM 40.6330 -73.7830 120° Southeast 181 208 200 837 Climbing FlightAware ADS-B
Sun 12:31:44 AM 40.6230 -73.7590 119° Southeast 191 220 600 1,125 Climbing FlightAware ADS-B
Sun 12:31:52 AM 40.6200 -73.7510 116° Southeast 198 228 800 1,333 Climbing FlightAware ADS-B
Sun 12:32:02 AM 40.6190 -73.7390 96° East 201 231 1,000 1,400 Climbing FlightAware ADS-B
Sun 12:32:22 AM 40.6170 -73.7140 96° East 208 239 1,500 980 Climbing FlightAware ADS-B
Sun 12:32:51 AM 40.6160 -73.6740 92° East 239 275 1,800 566 Climbing FlightAware ADS-B
Sun 12:33:15 AM 40.6140 -73.6360 94° East 265 305 2,000 857 Climbing FlightAware ADS-B
Sun 12:33:33 AM 40.6120 -73.6070 95° East 276 318 2,400 857 Climbing FlightAware ADS-B
Sun 12:34:04 AM 40.6240 -73.5580 72° East 300 345 2,700 682 Climbing FlightAware ADS-B
Sun 12:34:17 AM 40.6310 -73.5470 50° Northeast 304 350 2,900 1,500 Climbing FlightAware ADS-B
Sun 12:34:32 AM 40.6560 -73.5280 30° Northeast 304 350 3,400 2,400 Climbing FlightAware ADS-B
Sun 12:34:47 AM 40.6780 -73.5220 12° North 302 348 4,100 2,276 Climbing FlightAware ADS-B
Sun 12:35:01 AM 40.6950 -73.5190 North 304 350 4,500 1,273 Climbing FlightAware ADS-B
Sun 12:35:20 AM 40.7110 -73.5140 13° North 312 359 4,800 1,929 Climbing FlightAware ADS-B
Sun 12:35:29 AM 40.7340 -73.5040 18° North 318 366 5,400 2,690 Climbing FlightAware ADS-B
Sun 12:35:49 AM 40.7600 -73.4880 25° Northeast 320 368 6,100 2,182 Climbing FlightAware ADS-B
Sun 12:36:02 AM 40.7780 -73.4780 23° Northeast 321 369 6,600 2,057 Climbing FlightAware ADS-B
Sun 12:36:24 AM 40.8100 -73.4590 24° Northeast 325 374 7,300 2,000 Climbing FlightAware ADS-B
Sun 12:36:44 AM 40.8380 -73.4440 22° Northeast 328 377 8,000 2,100 Climbing FlightAware ADS-B
Sun 12:37:04 AM 40.8670 -73.4270 24° Northeast 330 380 8,700 2,049 Climbing FlightAware ADS-B
Sun 12:37:25 AM 40.8980 -73.4110 21° North 332 382 9,400 1,831 Climbing FlightAware ADS-B
Sun 12:38:03 AM 40.9460 -73.3840 23° Northeast 337 388 10,500 1,437 Climbing FlightAware ADS-B
Sun 12:38:36 AM 41.0010 -73.3530 23° Northeast 364 419 11,100 1,059 Climbing FlightAware ADS-B
Sun 12:39:11 AM 41.0490 -73.3070 36° Northeast 392 451 11,700 971 Climbing FlightAware ADS-B
Sun 12:39:44 AM 41.0920 -73.2420 49° Northeast 418 481 12,200 1,182 Climbing FlightAware ADS-B
Sun 12:40:17 AM 41.1310 -73.1790 51° Northeast 434 499 13,000 1,690 Climbing FlightAware ADS-B
Sun 12:40:55 AM 41.1810 -73.0990 50° Northeast 442 509 14,200 1,913 Climbing FlightAware ADS-B
Sun 12:41:26 AM 41.2230 -73.0310 51° Northeast 449 517 15,200 2,727 Climbing FlightAware ADS-B
Sun 12:42:12 AM 41.2790 -72.9430 50° Northeast 426 490 17,700 2,889 Climbing FlightAware ADS-B
Sun 12:42:47 AM 41.3230 -72.8730 50° Northeast 423 487 19,100 2,029 Climbing FlightAware ADS-B
Sun 12:43:20 AM 41.3680 -72.8010 50° Northeast 429 494 20,000 1,457 Climbing FlightAware ADS-B
Sun 12:43:57 AM 41.4130 -72.7290 50° Northeast 437 503 20,800 1,114 Climbing FlightAware ADS-B
Sun 12:44:30 AM 41.4550 -72.6620 50° Northeast 452 520 21,300 1,135 Climbing FlightAware ADS-B
Sun 12:45:11 AM 41.5140 -72.5660 51° Northeast 464 534 22,200 1,233 Climbing FlightAware ADS-B
Sun 12:45:43 AM 41.5590 -72.4930 51° Northeast 471 542 22,800 1,026 Climbing FlightAware ADS-B
Sun 12:46:27 AM 41.6210 -72.3920 51° Northeast 486 559 23,500 1,026 Climbing FlightAware ADS-B
Sun 12:46:59 AM 41.6670 -72.3180 50° Northeast 491 565 24,100 1,040 Climbing FlightAware ADS-B
Sun 12:47:42 AM 41.7260 -72.2220 51° Northeast 501 577 24,800 1,013 Climbing FlightAware ADS-B
Sun 12:48:16 AM 41.7730 -72.1450 51° Northeast 505 581 25,400 1,068 Climbing FlightAware ADS-B
Sun 12:48:55 AM 41.8220 -72.0750 47° Northeast 504 580 26,100 1,116 Climbing FlightAware ADS-B
Sun 12:49:42 AM 41.9320 -71.9700 35° Northeast 508 585 27,000 1,063 Climbing FlightAware ADS-B
Sun 12:50:14 AM 41.9940 -71.9150 33° Northeast 512 589 27,500 1,015 Climbing FlightAware ADS-B
Sun 12:50:47 AM 42.0560 -71.8590 34° Northeast 515 593 28,100 1,154 Climbing FlightAware ADS-B
Sun 12:51:32 AM 42.1510 -71.7740 34° Northeast 513 590 29,000 1,200 Climbing FlightAware ADS-B
Sun 12:52:12 AM 42.2320 -71.7020 33° Northeast 511 588 29,800 1,120 Climbing FlightAware ADS-B
Sun 12:52:47 AM 42.2920 -71.6470 34° Northeast 511 588 30,400 917 Climbing FlightAware ADS-B
Sun 12:53:24 AM 42.3580 -71.5870 34° Northeast 512 589 30,900 512 Climbing FlightAware ADS-B
Sun 12:54:09 AM 42.4610 -71.4940 34° Northeast 505 581 31,100 74 Climbing FlightAware ADS-B
Sun 12:54:45 AM 42.5310 -71.4300 34° Northeast 504 580 31,000 -78 Descending FlightAware ADS-B
Sun 12:55:26 AM 42.6070 -71.3610 34° Northeast 506 582 31,000  Level FlightAware ADS-B
Sun 12:55:59 AM 42.6780 -71.2960 34° Northeast 506 582 31,000 95 Level FlightAware ADS-B
Sun 12:56:29 AM 42.7370 -71.2420 34° Northeast 507 583 31,100  Climbing FlightAware ADS-B
Sun 12:57:07 AM 42.8060 -71.1780 34° Northeast 507 583 31,000 -83 Descending FlightAware ADS-B
Sun 12:57:41 AM 42.8730 -71.1160 34° Northeast 506 582 31,000  Level FlightAware ADS-B
Sun 12:58:19 AM 42.9540 -71.0420 34° Northeast 508 585 31,000 82 Level FlightAware ADS-B
Sun 12:58:54 AM 43.0210 -70.9790 34° Northeast 508 585 31,100  Climbing FlightAware ADS-B
Sun 12:59:25 AM 43.0820 -70.9230 34° Northeast 510 587 31,000  Descending FlightAware ADS-B
Sun 01:00:02 AM 43.1500 -70.8590 34° Northeast 510 587 31,100  Climbing FlightAware ADS-B
Sun 01:00:36 AM 43.2200 -70.7930 34° Northeast 510 587 31,000  Descending FlightAware ADS-B
Sun 01:01:15 AM 43.2900 -70.7280 34° Northeast 509 586 31,100  Climbing FlightAware ADS-B
Sun 01:01:55 AM 43.3780 -70.6450 34° Northeast 509 586 31,000 -75 Descending FlightAware ADS-B
Sun 01:02:35 AM 43.4470 -70.5790 35° Northeast 509 586 31,000  Level FlightAware ADS-B
Sun 01:03:11 AM 43.5290 -70.5020 34° Northeast 508 585 31,000  Level FlightAware ADS-B
Sun 01:03:46 AM 43.5870 -70.4470 34° Northeast 507 583 31,000  Level FlightAware ADS-B
Sun 01:04:21 AM 43.6690 -70.3690 35° Northeast 508 585 31,000  Level FlightAware ADS-B
Sun 01:04:53 AM 43.7270 -70.3140 34° Northeast 513 590 31,000 75 Level FlightAware ADS-B
Sun 01:05:41 AM 43.8210 -70.2230 35° Northeast 513 590 31,100 71 Climbing FlightAware ADS-B
Sun 01:06:18 AM 43.8830 -70.1650 34° Northeast 513 590 31,100 -90 Level FlightAware ADS-B
Sun 01:06:48 AM 43.9440 -70.1050 35° Northeast 517 595 31,000 -87 Descending FlightAware ADS-B
Sun 01:07:27 AM 44.0260 -70.0260 35° Northeast 517 595 31,000  Level FlightAware ADS-B
Sun 01:08:02 AM 44.1020 -69.9520 35° Northeast 516 594 31,000 90 Level FlightAware ADS-B
Sun 01:08:34 AM 44.1600 -69.8960 35° Northeast 516 594 31,100 92 Climbing FlightAware ADS-B
Sun 01:09:07 AM 44.2250 -69.8330 35° Northeast 517 595 31,100 -90 Level FlightAware ADS-B
Sun 01:09:41 AM 44.2800 -69.7790 35° Northeast 518 596 31,000  Descending FlightAware ADS-B
Sun 01:10:25 AM 44.3790 -69.6820 35° Northeast 518 596 31,100  Climbing FlightAware ADS-B
Sun 01:10:59 AM 44.4460 -69.6160 35° Northeast 517 595 31,000 -98 Descending FlightAware ADS-B
Sun 01:11:26 AM 44.4890 -69.5740 35° Northeast 517 595 31,000  Level FlightAware ADS-B
Sun 01:12:10 AM 44.5670 -69.5050 32° Northeast 516 594 31,000  Level FlightAware ADS-B
Sun 01:12:48 AM 44.6650 -69.4380 26° Northeast 516 594 31,000  Level FlightAware ADS-B
Sun 01:13:23 AM 44.7520 -69.3830 24° Northeast 519 597 31,000  Level FlightAware ADS-B
Sun 01:13:58 AM 44.8270 -69.3340 25° Northeast 519 597 31,000  Level FlightAware ADS-B
Sun 01:14:34 AM 44.9060 -69.2830 25° Northeast 521 600 31,000  Level FlightAware ADS-B
Sun 01:15:09 AM 44.9810 -69.2340 25° Northeast 523 602 31,000  Level FlightAware ADS-B
Sun 01:15:41 AM 45.0390 -69.1960 25° Northeast 524 603 31,000  Level FlightAware ADS-B
Sun 01:16:19 AM 45.1350 -69.1330 25° Northeast 525 604 31,000 87 Level FlightAware ADS-B
Sun 01:16:50 AM 45.2020 -69.0840 27° Northeast 530 610 31,100  Climbing FlightAware ADS-B
Sun 01:17:26 AM 45.2770 -69.0250 29° Northeast 530 610 31,000 -82 Descending FlightAware ADS-B
Sun 01:18:03 AM 45.3520 -68.9650 29° Northeast 528 608 31,000 86 Level FlightAware ADS-B
Sun 01:18:36 AM 45.4170 -68.9080 32° Northeast 534 615 31,100  Climbing FlightAware ADS-B
Sun 01:19:12 AM 45.4970 -68.8280 35° Northeast 535 616 31,000 -82 Descending FlightAware ADS-B
Sun 01:19:49 AM 45.5680 -68.7550 36° Northeast 536 617 31,000  Level FlightAware ADS-B
Sun 01:20:20 AM 45.6380 -68.6820 36° Northeast 537 618 31,000  Level FlightAware ADS-B
Sun 01:20:55 AM 45.7010 -68.6150 37° Northeast 537 618 31,000  Level FlightAware ADS-B
Sun 01:21:35 AM 45.7780 -68.5330 37° Northeast 536 617 31,000  Level FlightAware ADS-B
Sun 01:22:17 AM 45.8620 -68.4430 37° Northeast 538 619 31,000  Level FlightAware ADS-B
Sun 01:22:56 AM 45.9450 -68.3540 37° Northeast 539 620 31,000  Level FlightAware ADS-B
Sun 01:23:31 AM 46.0150 -68.2770 37° Northeast 539 620 31,000  Level FlightAware ADS-B
Sun 01:24:13 AM 46.0910 -68.1950 37° Northeast 539 620 31,000  Level FlightAware ADS-B
Sun 01:24:45 AM 46.1640 -68.1170 36° Northeast 538 619 31,000  Level FlightAware ADS-B
Sun 01:25:25 AM 46.2420 -68.0310 37° Northeast 538 619 31,000  Level FlightAware ADS-B
Sun 01:26:17 AM 46.3300 -67.9350 37° Northeast 538 619 31,000  Level FlightAware ADS-B
Sun 01:26:57 AM 46.2470 -68.0260 217° Southwest 538 619 31,000  Level FlightAware ADS-B
Sun 01:27:35 AM 46.3110 -67.9560 37° Northeast 538 619 31,000  Level FlightAware ADS-B
Sun 01:28:14 AM 46.3770 -67.8840 37° Northeast 538 619 31,000  Level FlightAware ADS-B
Sun 01:28:50 AM 46.4380 -67.8180 37° Northeast 538 619 31,000  Level FlightAware ADS-B
Sun 01:29:26 AM 46.4980 -67.7510 38° Northeast 538 619 31,000  Level FlightAware ADS-B
Sun 01:30:03 AM 46.5610 -67.6830 37° Northeast 538 619 31,000  Level FlightAware ADS-B
Sun 01:30:39 AM 46.8560 -67.3500 38° Northeast 532 612 31,000  Level FlightAware ADS-B
Sun 01:31:10 AM 46.9070 -67.2940 37° Northeast 532 612 31,000  Level FlightAware ADS-B
Sun 01:31:58 AM 46.9870 -67.2050 37° Northeast 532 612 31,000  Level FlightAware ADS-B
Sun 01:32:34 AM 47.0470 -67.1390 37° Northeast 532 612 31,000  Level FlightAware ADS-B
Sun 01:33:21 AM 47.1260 -67.0520 37° Northeast 532 612 31,000  Level FlightAware ADS-B
Sun 01:33:57 AM 47.1860 -66.9850 37° Northeast 532 612 31,000  Level FlightAware ADS-B
Sun 01:34:35 AM 47.2490 -66.9150 37° Northeast 532 612 31,000  Level FlightAware ADS-B
Sun 01:35:14 AM 47.3140 -66.8420 37° Northeast 532 612 31,000  Level FlightAware ADS-B
Sun 01:35:55 AM 47.3830 -66.7660 37° Northeast 532 612 31,000  Level FlightAware ADS-B
Sun 01:36:33 AM 47.4460 -66.6960 37° Northeast 532 612 31,000  Level FlightAware ADS-B
Sun 01:37:07 AM 47.5030 -66.6320 37° Northeast 532 612 31,000  Level FlightAware ADS-B
Sun 01:37:41 AM 47.5600 -66.5690 37° Northeast 532 612 31,000  Level FlightAware ADS-B
Sun 01:38:18 AM 47.6220 -66.5000 37° Northeast 532 612 31,000  Level FlightAware ADS-B
Sun 01:38:57 AM 47.6870 -66.4270 37° Northeast 532 612 31,000  Level FlightAware ADS-B
Sun 01:39:32 AM 47.7450 -66.3610 37° Northeast 532 612 31,000  Level FlightAware ADS-B
Sun 01:40:06 AM 47.8020 -66.2980 37° Northeast 532 612 31,000  Level FlightAware ADS-B
Sun 01:40:43 AM 47.8640 -66.2280 37° Northeast 532 612 31,000  Level FlightAware ADS-B
Sun 01:41:22 AM 48.1000 -65.8833 37° Northeast 540 621 31,000  Level Gander Center
Sun 01:42:11 AM 48.2000 -65.7833 34° Northeast 540 621 31,000  Level Moncton Center
Sun 01:43:11 AM 48.3167 -65.6333 41° Northeast 540 621 31,000  Level Moncton Center
Sun 01:44:11 AM 48.4333 -65.4833 40° Northeast 540 621 31,000  Level Moncton Center
Sun 01:45:11 AM 48.5500 -65.3500 37° Northeast 540 621 31,000  Level Moncton Center
Sun 01:46:11 AM 48.6667 -65.2167 37° Northeast 550 633 31,000  Level Moncton Center
Sun 01:47:11 AM 48.7833 -65.0500 43° Northeast 550 633 31,000  Level Moncton Center
Sun 01:48:11 AM 48.9000 -64.9000 40° Northeast 550 633 31,000  Level Moncton Center
Sun 01:49:11 AM 49.0167 -64.7500 40° Northeast 550 633 31,000  Level Moncton Center
Sun 01:50:11 AM 49.1333 -64.6000 40° Northeast 560 644 31,000  Level Moncton Center
Sun 01:51:11 AM 49.2500 -64.4500 40° Northeast 550 633 31,000  Level Moncton Center
Sun 01:52:11 AM 49.3667 -64.3167 37° Northeast 550 633 31,000  Level Moncton Center
Sun 01:53:11 AM 49.4833 -64.1333 46° Northeast 550 633 31,000  Level Moncton Center
Sun 01:54:11 AM 49.6000 -64.0167 33° Northeast 550 633 31,000  Level Moncton Center
Sun 01:55:11 AM 49.7333 -63.8500 39° Northeast 560 644 31,000  Level Moncton Center
Sun 01:56:11 AM 49.8500 -63.7000 40° Northeast 550 633 31,000  Level Moncton Center
Sun 01:57:11 AM 49.9667 -63.5333 43° Northeast 550 633 31,000  Level Moncton Center
Sun 01:58:11 AM 50.0833 -63.3833 39° Northeast 550 633 31,000  Level Moncton Center
Sun 01:59:11 AM 50.2000 -63.2167 42° Northeast 550 633 31,000  Level Moncton Center
Sun 02:00:11 AM 50.3167 -63.0667 39° Northeast 550 633 31,000  Level Moncton Center
Sun 02:01:11 AM 50.4333 -62.9000 42° Northeast 540 621 31,000  Level Moncton Center
Sun 02:02:11 AM 50.5500 -62.7667 36° Northeast 540 621 31,000  Level Moncton Center
Sun 02:03:11 AM 50.6667 -62.6000 42° Northeast 540 621 31,000  Level Moncton Center
Sun 02:04:11 AM 50.7667 -62.4333 46° Northeast 550 633 31,000  Level Moncton Center
Sun 02:05:11 AM 50.8833 -62.2667 42° Northeast 540 621 31,000  Level Moncton Center
Sun 02:06:11 AM 51.0167 -62.1167 35° Northeast 550 633 31,000  Level Moncton Center
Sun 02:07:11 AM 51.1000 -61.9667 48° Northeast 550 633 31,000  Level Moncton Center
Sun 02:08:11 AM 51.2333 -61.7833 41° Northeast 550 633 31,000  Level Moncton Center
Sun 02:09:11 AM 51.3500 -61.6333 39° Northeast 550 633 31,000  Level Moncton Center
Sun 02:10:11 AM 51.4667 -61.4500 44° Northeast 560 644 31,000  Level Moncton Center
Sun 02:11:11 AM 51.5833 -61.3000 39° Northeast 560 644 31,000  Level Moncton Center
Sun 02:12:11 AM 51.6833 -61.1333 46° Northeast 560 644 31,000  Level Moncton Center
Sun 02:13:11 AM 51.8000 -60.9667 41° Northeast 560 644 31,000  Level Moncton Center
Sun 02:14:11 AM 51.9167 -60.7833 44° Northeast 570 656 31,000  Level Moncton Center
Sun 02:15:11 AM 52.0333 -60.5833 46° Northeast 570 656 31,000  Level Moncton Center
Sun 02:16:11 AM 52.1500 -60.4500 35° Northeast 570 656 31,000  Level Moncton Center
Sun 02:17:11 AM 52.2667 -60.2333 49° Northeast 570 656 31,000  Level Moncton Center
Sun 02:18:11 AM 52.3833 -60.0667 41° Northeast 580 667 31,000  Level Moncton Center
Sun 02:19:11 AM 52.4833 -59.8667 51° Northeast 580 667 31,000  Level Moncton Center
Sun 02:20:11 AM 52.6000 -59.6667 46° Northeast 580 667 31,000  Level Moncton Center
Sun 02:21:11 AM 52.7167 -59.4833 44° Northeast 580 667 31,000  Level Moncton Center
Sun 02:22:11 AM 52.8167 -59.2833 50° Northeast 580 667 31,000  Level Moncton Center
Sun 02:23:11 AM 52.9167 -59.1000 48° Northeast 580 667 31,000  Level Moncton Center
Sun 02:24:11 AM 53.0333 -58.8833 48° Northeast 580 667 31,000  Level Moncton Center
Sun 02:25:11 AM 53.1333 -58.6833 50° Northeast 580 667 31,000  Level Moncton Center
Sun 02:26:11 AM 53.2667 -58.4667 44° Northeast 580 667 31,000  Level Moncton Center
Sun 02:27:11 AM 53.3500 -58.2833 53° Northeast 580 667 31,000  Level Moncton Center
Sun 02:28:11 AM 53.4833 -58.0667 44° Northeast 590 679 31,000  Level Moncton Center
Sun 02:29:11 AM 53.5833 -57.8833 47° Northeast 590 679 31,000  Level Moncton Center
Sun 02:30:11 AM 53.6833 -57.6500 54° Northeast 590 679 31,000  Level Moncton Center
Sun 02:31:11 AM 53.8000 -57.4667 43° Northeast 590 679 31,000  Level Moncton Center
Sun 02:32:11 AM 53.9000 -57.2500 52° Northeast 590 679 31,000  Level Moncton Center
Sun 02:33:11 AM 54.0000 -57.0333 52° Northeast 590 679 31,000  Level Moncton Center
Sun 02:34:11 AM 54.1167 -56.8333 45° Northeast 590 679 31,000  Level Moncton Center
Sun 02:35:11 AM 54.2333 -56.6167 47° Northeast 600 690 31,000  Level Moncton Center
Sun 02:36:11 AM 54.3333 -56.4000 52° Northeast 590 679 31,000  Level Moncton Center
Sun 02:37:11 AM 54.4333 -56.1667 54° Northeast 600 690 31,000  Level Moncton Center
Sun 02:38:11 AM 54.5500 -55.9500 47° Northeast 600 690 31,000  Level Moncton Center
Sun 02:39:11 AM 54.6500 -55.7000 55° Northeast 610 702 31,000  Level Moncton Center
Sun 02:40:11 AM 54.7167 -55.4500 65° Northeast 620 713 31,000  Level Moncton Center
Sun 02:41:11 AM 54.7833 -55.1667 68° East 620 713 31,000  Level Moncton Center
Sun 02:42:11 AM 54.8500 -54.9000 66° East 620 713 31,000  Level Moncton Center
Sun 02:43:11 AM 54.9167 -54.6500 65° Northeast 620 713 31,000  Level Moncton Center
Sun 02:44:11 AM 55.0000 -54.3333 65° Northeast 620 713 31,000  Level Moncton Center
Sun 02:45:11 AM 55.0500 -54.0833 71° East 620 713 31,000  Level Moncton Center
Sun 02:46:11 AM 55.1333 -53.8000 63° Northeast 620 713 31,000  Level Moncton Center
Sun 02:47:22 AM 55.2000 -53.4833 70° East 630 725 31,000  Level Gander Center
Sun 02:48:22 AM 55.2667 -53.2000 67° East 630 725 31,000  Level Gander Center
Sun 02:49:22 AM 55.3333 -52.9333 66° East 630 725 31,000  Level Gander Center
Sun 02:50:22 AM 55.4000 -52.6500 67° East 630 725 31,000  Level Gander Center
Sun 02:51:22 AM 55.4667 -52.3667 67° East 630 725 31,000  Level Gander Center
Sun 02:52:22 AM 55.5333 -52.0500 69° East 630 725 31,000  Level Gander Center
Sun 02:53:22 AM 55.5833 -51.7833 72° East 630 725 31,000 24 Level Gander Center
Sun 02:55:00 AM 55.6821 -51.3737 67° East  Level FlightAware Approximate
Sun 03:02:00 AM 56.0989 -49.6015 66° East  Level FlightAware Approximate
Sun 03:03:00 AM 56.1608 -49.3485 66° East  Level FlightAware Approximate
Sun 03:04:00 AM 56.2222 -49.0948 66° East  Level FlightAware Approximate
Sun 03:05:00 AM 56.2830 -48.8402 67° East  Level FlightAware Approximate
Sun 03:06:00 AM 56.3433 -48.5848 67° East  Level FlightAware Approximate
Sun 03:07:00 AM 56.4031 -48.3286 67° East  Level FlightAware Approximate
Sun 03:08:00 AM 56.4624 -48.0715 67° East  Level FlightAware Approximate
Sun 03:09:00 AM 56.5211 -47.8137 67° East  Level FlightAware Approximate
Sun 03:10:00 AM 56.5793 -47.5551 68° East  Level FlightAware Approximate
Sun 03:11:00 AM 56.6370 -47.2957 68° East  Level FlightAware Approximate
Sun 03:12:00 AM 56.6941 -47.0355 68° East  Level FlightAware Approximate
Sun 03:13:00 AM 56.7506 -46.7746 68° East  Level FlightAware Approximate
Sun 03:14:00 AM 56.8067 -46.5128 69° East  Level FlightAware Approximate
Sun 03:15:00 AM 56.8621 -46.2503 69° East  Level FlightAware Approximate
Sun 03:16:00 AM 56.9170 -45.9869 69° East  Level FlightAware Approximate
Sun 03:17:00 AM 56.9714 -45.7229 69° East  Level FlightAware Approximate
Sun 03:18:00 AM 57.0252 -45.4580 69° East  Level FlightAware Approximate
Sun 03:19:00 AM 57.0785 -45.1924 70° East  Level FlightAware Approximate
Sun 03:20:00 AM 57.1312 -44.9260 70° East  Level FlightAware Approximate
Sun 03:21:00 AM 57.1833 -44.6589 70° East  Level FlightAware Approximate
Sun 03:22:00 AM 57.2348 -44.3910 70° East  Level FlightAware Approximate
Sun 03:23:00 AM 57.2858 -44.1223 71° East  Level FlightAware Approximate
Sun 03:24:00 AM 57.3362 -43.8530 71° East  Level FlightAware Approximate
Sun 03:25:00 AM 57.3860 -43.5829 71° East  Level FlightAware Approximate
Sun 03:26:00 AM 57.4353 -43.3120 71° East  Level FlightAware Approximate
Sun 03:27:00 AM 57.4840 -43.0405 71° East  Level FlightAware Approximate
Sun 03:28:00 AM 57.5331 -42.7688 71° East  Level FlightAware Approximate
Sun 03:29:00 AM 57.5822 -42.4968 71° East  Level FlightAware Approximate
Sun 03:30:00 AM 57.6307 -42.2241 72° East  Level FlightAware Approximate
Sun 03:31:00 AM 57.6786 -41.9506 72° East  Level FlightAware Approximate
Sun 03:32:00 AM 57.7260 -41.6764 72° East  Level FlightAware Approximate
Sun 03:33:00 AM 57.7727 -41.4015 72° East  Level FlightAware Approximate
Sun 03:34:00 AM 57.8189 -41.1259 72° East  Level FlightAware Approximate
Sun 03:35:00 AM 57.8644 -40.8495 73° East  Level FlightAware Approximate
Sun 03:36:00 AM 57.9094 -40.5725 73° East  Level FlightAware Approximate
Sun 03:37:00 AM 57.9537 -40.2948 73° East  Level FlightAware Approximate
Sun 03:38:00 AM 57.9974 -40.0164 73° East  Level FlightAware Approximate
Sun 03:39:00 AM 58.0824 -39.7748 55° Northeast  Level FlightAware Approximate
Sun 03:40:00 AM 58.1695 -39.5344 55° Northeast  Level FlightAware Approximate
Sun 03:41:00 AM 58.2561 -39.2928 56° Northeast  Level FlightAware Approximate
Sun 03:42:00 AM 58.3423 -39.0500 56° Northeast  Level FlightAware Approximate
Sun 03:43:00 AM 58.4281 -38.8060 56° Northeast  Level FlightAware Approximate
Sun 03:44:00 AM 58.5133 -38.5608 56° Northeast  Level FlightAware Approximate
Sun 03:45:00 AM 58.5981 -38.3145 56° Northeast  Level FlightAware Approximate
Sun 03:46:00 AM 58.6824 -38.0669 57° Northeast  Level FlightAware Approximate
Sun 03:47:00 AM 58.7663 -37.8182 57° Northeast  Level FlightAware Approximate
Sun 03:48:00 AM 58.8496 -37.5683 57° Northeast  Level FlightAware Approximate
Sun 03:49:00 AM 58.9325 -37.3171 57° Northeast  Level FlightAware Approximate
Sun 03:50:00 AM 59.0149 -37.0648 58° Northeast  Level FlightAware Approximate
Sun 03:51:00 AM 59.0968 -36.8112 58° Northeast  Level FlightAware Approximate
Sun 03:52:00 AM 59.1782 -36.5564 58° Northeast  Level FlightAware Approximate
Sun 03:53:00 AM 59.2591 -36.3005 58° Northeast  Level FlightAware Approximate
Sun 03:54:00 AM 59.3395 -36.0433 58° Northeast  Level FlightAware Approximate
Sun 03:55:00 AM 59.4193 -35.7849 59° Northeast  Level FlightAware Approximate
Sun 03:56:00 AM 59.4987 -35.5252 59° Northeast  Level FlightAware Approximate
Sun 03:57:00 AM 59.5776 -35.2644 59° Northeast  Level FlightAware Approximate
Sun 03:58:00 AM 59.6559 -35.0023 59° Northeast  Level FlightAware Approximate
Sun 03:59:00 AM 59.7337 -34.7390 60° Northeast  Level FlightAware Approximate
Sun 04:00:00 AM 59.8110 -34.4745 60° Northeast  Level FlightAware Approximate
Sun 04:01:00 AM 59.8877 -34.2088 60° Northeast  Level FlightAware Approximate
Sun 04:02:00 AM 59.9639 -33.9418 60° Northeast  Level FlightAware Approximate
Sun 04:03:00 AM 60.0396 -33.6736 60° Northeast  Level FlightAware Approximate
Sun 04:04:00 AM 60.1147 -33.4042 61° Northeast  Level FlightAware Approximate
Sun 04:05:00 AM 60.1893 -33.1335 61° Northeast  Level FlightAware Approximate
Sun 04:06:00 AM 60.2638 -32.8621 61° Northeast  Level FlightAware Approximate
Sun 04:07:00 AM 60.3379 -32.5898 61° Northeast  Level FlightAware Approximate
Sun 04:08:00 AM 60.4116 -32.3162 61° Northeast  Level FlightAware Approximate
Sun 04:09:00 AM 60.4846 -32.0415 62° Northeast  Level FlightAware Approximate
Sun 04:10:00 AM 60.5571 -31.7654 62° Northeast  Level FlightAware Approximate
Sun 04:11:00 AM 60.6290 -31.4882 62° Northeast  Level FlightAware Approximate
Sun 04:12:00 AM 60.7004 -31.2097 62° Northeast  Level FlightAware Approximate
Sun 04:13:00 AM 60.7711 -30.9299 63° Northeast  Level FlightAware Approximate
Sun 04:14:00 AM 60.8413 -30.6490 63° Northeast  Level FlightAware Approximate
Sun 04:14:57 AM 61.2240 -28.3280 63° Northeast 603 694 33,000  Level FlightAware ADS-B
Sun 04:15:00 AM 60.9109 -30.3668 63° Northeast  Level FlightAware Approximate
Sun 04:15:27 AM 61.2460 -28.1490 76° East 603 694 33,000  Level FlightAware ADS-B
Sun 04:16:00 AM 61.2690 -27.9650 75° East 604 695 33,000  Level FlightAware ADS-B
Sun 04:16:47 AM 61.2950 -27.7610 75° East 604 695 33,000  Level FlightAware ADS-B
Sun 04:17:22 AM 61.3170 -27.5940 75° East 604 695 33,000  Level FlightAware ADS-B
Sun 04:18:02 AM 61.3480 -27.3150 77° East 608 700 33,000  Level FlightAware ADS-B
Sun 04:18:39 AM 61.3690 -27.1360 76° East 608 700 33,000  Level FlightAware ADS-B
Sun 04:19:15 AM 61.4010 -26.8570 76° East 616 709 33,000  Level FlightAware ADS-B
Sun 04:19:48 AM 61.4220 -26.6710 77° East 616 709 33,000  Level FlightAware ADS-B
Sun 04:20:24 AM 61.4460 -26.4560 77° East 616 709 33,000  Level FlightAware ADS-B
Sun 04:20:58 AM 61.4680 -26.2630 76° East 615 708 33,000  Level FlightAware ADS-B
Sun 04:21:34 AM 61.4900 -26.0540 77° East 614 707 33,000  Level FlightAware ADS-B
Sun 04:22:06 AM 61.5080 -25.8930 77° East 614 707 33,000 83 Level FlightAware ADS-B
Sun 04:22:46 AM 61.5340 -25.6420 78° East 614 707 33,100 289 Climbing FlightAware ADS-B
Sun 04:23:29 AM 61.5590 -25.4150 77° East 613 705 33,400 1,167 Climbing FlightAware ADS-B
Sun 04:23:58 AM 61.5770 -25.2250 79° East 610 702 34,500 1,545 Climbing FlightAware ADS-B
Sun 04:24:35 AM 61.5990 -25.0110 78° East 610 702 35,100 514 Climbing FlightAware ADS-B
Sun 04:25:08 AM 61.6180 -24.8120 79° East 613 705 35,100 -86 Level FlightAware ADS-B
Sun 04:25:45 AM 61.6390 -24.5980 78° East 609 701 35,000 -87 Descending FlightAware ADS-B
Sun 04:26:17 AM 61.6570 -24.4120 78° East 607 699 35,000  Level FlightAware ADS-B
Sun 04:26:55 AM 61.6760 -24.2120 79° East 605 696 35,000  Level FlightAware ADS-B
Sun 04:27:32 AM 61.6960 -23.9910 79° East 604 695 35,000  Level FlightAware ADS-B
Sun 04:28:03 AM 61.7130 -23.8010 79° East 602 693 35,000  Level FlightAware ADS-B
Sun 04:28:39 AM 61.7320 -23.5950 79° East 602 693 35,000 76 Level FlightAware ADS-B
Sun 04:29:22 AM 61.7530 -23.3490 80° East 603 694 35,100  Climbing FlightAware ADS-B
Sun 04:29:59 AM 61.7720 -23.1330 79° East 605 696 35,000 -87 Descending FlightAware ADS-B
Sun 04:30:31 AM 61.7850 -22.9820 80° East 605 696 35,000  Level FlightAware ADS-B
Sun 04:31:07 AM 61.8050 -22.7370 80° East 606 697 35,000 78 Level FlightAware ADS-B
Sun 04:31:48 AM 61.8240 -22.5010 80° East 606 697 35,100  Climbing FlightAware ADS-B
Sun 04:32:24 AM 61.8400 -22.3040 80° East 607 699 35,000  Descending FlightAware ADS-B
Sun 04:32:59 AM 61.8570 -22.0830 81° East 607 699 35,100 86 Climbing FlightAware ADS-B
Sun 04:33:34 AM 61.8710 -21.8950 81° East 608 700 35,100 -87 Level FlightAware ADS-B
Sun 04:34:08 AM 61.8870 -21.6800 81° East 608 700 35,000 -85 Descending FlightAware ADS-B
Sun 04:34:45 AM 61.9030 -21.4620 81° East 608 700 35,000  Level FlightAware ADS-B
Sun 04:35:15 AM 61.9160 -21.2820 81° East 609 701 35,000  Level FlightAware ADS-B
Sun 04:36:05 AM 61.9360 -20.9880 82° East 609 701 35,000 74 Level FlightAware ADS-B
Sun 04:36:36 AM 61.9490 -20.8040 81° East 609 701 35,100  Climbing FlightAware ADS-B
Sun 04:37:11 AM 61.9620 -20.5960 82° East 609 701 35,000 -88 Descending FlightAware ADS-B
Sun 04:37:44 AM 61.9750 -20.4050 82° East 610 702 35,000  Level FlightAware ADS-B
Sun 04:38:24 AM 61.9900 -20.1690 82° East 610 702 35,000 82 Level FlightAware ADS-B
Sun 04:38:57 AM 62.0020 -19.9750 82° East 610 702 35,100 90 Climbing FlightAware ADS-B
Sun 04:39:31 AM 62.0090 -19.8130 85° East 610 702 35,100 -87 Level FlightAware ADS-B
Sun 04:40:06 AM 62.0160 -19.5600 87° East 611 703 35,000 -86 Descending FlightAware ADS-B
Sun 04:40:41 AM 62.0220 -19.3550 86° East 612 704 35,000  Level FlightAware ADS-B
Sun 04:41:18 AM 62.0280 -19.1260 87° East 613 705 35,000  Level FlightAware ADS-B
Sun 04:41:54 AM 62.0340 -18.9150 86° East 613 705 35,000 94 Level FlightAware ADS-B
Sun 04:42:22 AM 62.0390 -18.7510 86° East 614 707 35,100  Climbing FlightAware ADS-B
Sun 04:42:51 AM 62.0440 -18.5710 87° East 613 705 35,000 -88 Descending FlightAware ADS-B
Sun 04:43:30 AM 62.0500 -18.3370 87° East 614 707 35,000  Level FlightAware ADS-B
Sun 04:44:10 AM 62.0550 -18.1210 87° East 614 707 35,000 77 Level FlightAware ADS-B
Sun 04:44:48 AM 62.0610 -17.8630 87° East 614 707 35,100  Climbing FlightAware ADS-B
Sun 04:45:23 AM 62.0650 -17.6540 88° East 614 707 35,000 -87 Descending FlightAware ADS-B
Sun 04:45:57 AM 62.0690 -17.4510 88° East 615 708 35,000  Level FlightAware ADS-B
Sun 04:46:32 AM 62.0730 -17.2330 88° East 615 708 35,000 90 Level FlightAware ADS-B
Sun 04:47:04 AM 62.0760 -17.0490 88° East 615 708 35,100 90 Climbing FlightAware ADS-B
Sun 04:47:39 AM 62.0790 -16.8360 88° East 615 708 35,100 -83 Level FlightAware ADS-B
Sun 04:48:16 AM 62.0810 -16.6050 89° East 614 707 35,000  Descending FlightAware ADS-B
Sun 04:48:52 AM 62.0840 -16.4040 88° East 614 707 35,100  Climbing FlightAware ADS-B
Sun 04:49:26 AM 62.0860 -16.1850 89° East 614 707 35,000  Descending FlightAware ADS-B
Sun 04:50:00 AM 62.0870 -15.9780 89° East 614 707 35,100 88 Climbing FlightAware ADS-B
Sun 04:50:34 AM 62.0890 -15.7720 89° East 615 708 35,100  Level FlightAware ADS-B
Sun 04:51:12 AM 62.0900 -15.5410 89° East 615 708 35,100  Level FlightAware ADS-B
Sun 04:51:49 AM 62.0900 -15.3220 90° East 615 708 35,100  Level FlightAware ADS-B
Sun 04:52:20 AM 62.0910 -15.1280 89° East 615 708 35,100 -91 Level FlightAware ADS-B
Sun 04:52:55 AM 62.0910 -14.9160 90° East 615 708 35,000 -77 Descending FlightAware ADS-B
Sun 04:53:38 AM 62.0900 -14.6680 90° East 615 708 35,000 80 Level FlightAware ADS-B
Sun 04:54:10 AM 62.0900 -14.4620 90° East 615 708 35,100  Climbing FlightAware ADS-B
Sun 04:54:41 AM 62.0890 -14.2790 91° East 615 708 35,000 -91 Descending FlightAware ADS-B
Sun 04:55:16 AM 62.0880 -14.0640 90° East 615 708 35,000 79 Level FlightAware ADS-B
Sun 04:55:57 AM 62.0860 -13.8440 91° East 615 708 35,100  Climbing FlightAware ADS-B
Sun 04:56:35 AM 62.0840 -13.5890 91° East 616 709 35,000 -85 Descending FlightAware ADS-B
Sun 04:57:08 AM 62.0810 -13.3850 92° East 614 707 35,000 91 Level FlightAware ADS-B
Sun 04:57:41 AM 62.0790 -13.1900 91° East 614 707 35,100  Climbing FlightAware ADS-B
Sun 04:58:18 AM 62.0760 -12.9630 92° East 614 707 35,000 -85 Descending FlightAware ADS-B
Sun 04:58:52 AM 62.0730 -12.7690 92° East 614 707 35,000  Level FlightAware ADS-B
Sun 04:59:29 AM 62.0690 -12.5370 92° East 615 708 35,000  Level FlightAware ADS-B
Sun 05:00:01 AM 62.0650 -12.3450 92° East 616 709 35,000 85 Level FlightAware ADS-B
Sun 05:00:40 AM 62.0610 -12.1140 92° East 617 710 35,100 82 Climbing FlightAware ADS-B
Sun 05:01:14 AM 62.0560 -11.8980 93° East 618 711 35,100 -87 Level FlightAware ADS-B
Sun 05:01:49 AM 62.0510 -11.6900 93° East 618 711 35,000  Descending FlightAware ADS-B
Sun 05:02:22 AM 62.0460 -11.4830 93° East 619 712 35,100 87 Climbing FlightAware ADS-B
Sun 05:02:58 AM 62.0400 -11.2680 93° East 620 713 35,100  Level FlightAware ADS-B
Sun 05:03:33 AM 62.0340 -11.0540 93° East 621 715 35,100  Level FlightAware ADS-B
Sun 05:04:11 AM 62.0280 -10.8240 93° East 621 715 35,100  Level FlightAware ADS-B
Sun 05:04:54 AM 62.0210 -10.5960 94° East 622 716 35,100  Level FlightAware ADS-B
Sun 05:05:23 AM 62.0140 -10.3860 94° East 622 716 35,100 -91 Level FlightAware ADS-B
Sun 05:06:00 AM 62.0060 -10.1550 94° East 622 716 35,000  Descending FlightAware ADS-B
Sun 05:06:34 AM 61.9990 -9.9690 95° East 621 715 35,100  Climbing FlightAware ADS-B
Sun 05:07:14 AM 61.9880 -9.7450 96° East 624 718 35,000 -79 Descending FlightAware ADS-B
Sun 05:07:50 AM 61.9790 -9.5580 96° East 624 718 35,000  Level FlightAware ADS-B
Sun 05:08:25 AM 61.9700 -9.3760 96° East 624 718 35,000  Level FlightAware ADS-B
Sun 05:09:01 AM 61.9600 -9.1890 96° East 624 718 35,000  Level FlightAware ADS-B
Sun 05:09:39 AM 61.9510 -8.9920 95° East 624 718 35,000 113 Level FlightAware ADS-B
Sun 05:09:54 AM 61.9180 -8.7610 107° East 620 713 35,100 122 Climbing FlightAware ADS-B
Sun 05:10:28 AM 61.9030 -8.5410 98° East 617 710 35,100  Level FlightAware ADS-B
Sun 05:11:02 AM 61.8880 -8.3380 99° East 617 710 35,100  Level FlightAware ADS-B
Sun 05:11:34 AM 61.8780 -8.1970 98° East 617 710 35,100  Level FlightAware ADS-B
Sun 05:12:13 AM 61.8580 -7.9330 99° East 616 709 35,100  Level FlightAware ADS-B
Sun 05:12:48 AM 61.8400 -7.7050 99° East 617 710 35,100  Level FlightAware ADS-B
Sun 05:13:19 AM 61.8260 -7.5240 99° East 617 710 35,100 -86 Level FlightAware ADS-B
Sun 05:13:58 AM 61.8070 -7.2950 100° East 617 710 35,000  Descending FlightAware ADS-B
Sun 05:14:32 AM 61.7900 -7.0880 100° East 616 709 35,100 87 Climbing FlightAware ADS-B
Sun 05:15:07 AM 61.7730 -6.8850 100° East 616 709 35,100  Level FlightAware ADS-B
Sun 05:15:43 AM 61.7550 -6.6710 100° East 616 709 35,100  Level FlightAware ADS-B
Sun 05:16:18 AM 61.7380 -6.4700 100° East 618 711 35,100 -87 Level FlightAware ADS-B
Sun 05:16:52 AM 61.7190 -6.2590 101° East 618 711 35,000 -88 Descending FlightAware ADS-B
Sun 05:17:26 AM 61.7010 -6.0600 101° East 618 711 35,000 86 Level FlightAware ADS-B
Sun 05:18:02 AM 61.6810 -5.8480 101° East 618 711 35,100  Climbing FlightAware ADS-B
Sun 05:18:34 AM 61.6640 -5.6600 101° East 617 710 35,000  Descending FlightAware ADS-B
Sun 05:19:14 AM 61.6410 -5.4240 101° East 617 710 35,100  Climbing FlightAware ADS-B
Sun 05:19:48 AM 61.6220 -5.2230 101° East 616 709 35,000 -91 Descending FlightAware ADS-B
Sun 05:20:20 AM 61.6030 -5.0360 102° East 616 709 35,000 90 Level FlightAware ADS-B
Sun 05:20:55 AM 61.5840 -4.8410 101° East 616 709 35,100  Climbing FlightAware ADS-B
Sun 05:21:34 AM 61.5600 -4.6060 102° East 615 708 35,000  Descending FlightAware ADS-B
Sun 05:22:02 AM 61.5430 -4.4460 103° East 615 708 35,100  Climbing FlightAware ADS-B
Sun 05:22:42 AM 61.5190 -4.2100 102° East 615 708 35,000  Descending FlightAware ADS-B
Sun 05:23:16 AM 61.5030 -4.0600 103° East 615 708 35,100  Climbing FlightAware ADS-B
Sun 05:23:52 AM 61.4750 -3.8040 103° East 617 710 35,000 -83 Descending FlightAware ADS-B
Sun 05:24:28 AM 61.4520 -3.5960 103° East 617 710 35,000 77 Level FlightAware ADS-B
Sun 05:25:10 AM 61.4280 -3.3770 103° East 617 710 35,100 81 Climbing FlightAware ADS-B
Sun 05:25:42 AM 61.4040 -3.1690 103° East 617 710 35,100  Level FlightAware ADS-B
Sun 05:26:22 AM 61.3780 -2.9400 103° East 617 710 35,100  Level FlightAware ADS-B
Sun 05:26:50 AM 61.3590 -2.7780 104° East 616 709 35,100  Level FlightAware ADS-B
Sun 05:27:30 AM 61.3350 -2.5800 104° East 615 708 35,100 -72 Level FlightAware ADS-B
Sun 05:28:13 AM 61.3030 -2.3070 104° East 614 707 35,000 -79 Descending FlightAware ADS-B
Sun 05:28:46 AM 61.2840 -2.1570 105° East 613 705 35,000 85 Level FlightAware ADS-B
Sun 05:29:24 AM 61.2520 -1.8970 104° East 612 704 35,100  Climbing FlightAware ADS-B
Sun 05:30:01 AM 61.2310 -1.7190 104° East 611 703 35,000  Descending FlightAware ADS-B
Sun 05:30:38 AM 61.1990 -1.4750 105° East 610 702 35,100 75 Climbing FlightAware ADS-B
Sun 05:31:21 AM 61.1690 -1.2490 105° East 610 702 35,100 -77 Level FlightAware ADS-B
Sun 05:31:56 AM 61.1420 -1.0390 105° East 608 700 35,000 -86 Descending FlightAware ADS-B
Sun 05:32:31 AM 61.1170 -0.8510 105° East 608 700 35,000 86 Level FlightAware ADS-B
Sun 05:33:06 AM 61.0900 -0.6480 105° East 609 701 35,100  Climbing FlightAware ADS-B
Sun 05:33:57 AM 61.0560 -0.3960 105° East 609 701 35,000 -65 Descending FlightAware ADS-B
Sun 05:34:38 AM 61.0310 -0.2000 105° East 609 701 35,000  Level FlightAware ADS-B
Sun 05:35:17 AM 61.0060 -0.0140 105° East 609 701 35,000 94 Level FlightAware ADS-B
Sun 05:35:42 AM 60.9350 0.1960 125° Southeast 627 722 35,100 87 Climbing FlightAware ADS-B
Sun 05:36:26 AM 60.8790 0.3630 125° Southeast 628 723 35,100 -75 Level FlightAware ADS-B
Sun 05:37:02 AM 60.8040 0.5840 125° Southeast 623 717 35,000 -85 Descending FlightAware ADS-B
Sun 05:37:37 AM 60.7460 0.7520 125° Southeast 621 715 35,000  Level FlightAware ADS-B
Sun 05:38:13 AM 60.6870 0.9230 125° Southeast 621 715 35,000  Level FlightAware ADS-B
Sun 05:38:53 AM 60.6200 1.1140 126° Southeast 620 713 35,000  Level FlightAware ADS-B
Sun 05:39:27 AM 60.5630 1.2750 126° Southeast 619 712 35,000 88 Level FlightAware ADS-B
Sun 05:40:01 AM 60.4980 1.4350 129° Southeast 624 718 35,100  Climbing FlightAware ADS-B
Sun 05:40:45 AM 60.4240 1.5920 134° Southeast 617 710 35,000 -73 Descending FlightAware ADS-B
Sun 05:41:23 AM 60.3310 1.7660 137° Southeast 615 708 35,000  Level FlightAware ADS-B
Sun 05:41:57 AM 60.2600 1.8970 138° Southeast 614 707 35,000  Level FlightAware ADS-B
Sun 05:42:32 AM 60.1840 2.0380 137° Southeast 615 708 35,000  Level FlightAware ADS-B
Sun 05:43:06 AM 60.1088 2.1755 137° Southeast 500 575 35,000 171 Level FlightAware UK
Sun 05:43:07 AM 60.1100 2.1720 137° Southeast 614 707 35,100  Climbing FlightAware ADS-B
Sun 05:43:37 AM 60.0470 2.2850 137° Southeast 613 705 35,000 -171 Descending FlightAware ADS-B
Sun 05:43:42 AM 60.0316 2.3142 137° Southeast 498 573 35,000  Level FlightAware UK
Sun 05:44:12 AM 59.9680 2.4288 137° Southeast 500 575 35,000  Level FlightAware UK
Sun 05:44:16 AM 59.9710 2.4220 137° Southeast 612 704 35,000  Level FlightAware ADS-B
Sun 05:44:55 AM 59.8860 2.5750 138° Southeast 613 705 35,000 77 Level FlightAware ADS-B
Sun 05:45:34 AM 59.8010 2.7240 139° Southeast 619 712 35,100  Climbing FlightAware ADS-B
Sun 05:46:07 AM 59.7250 2.8590 138° Southeast 619 712 35,000 -90 Descending FlightAware ADS-B
Sun 05:46:41 AM 59.6530 2.9860 138° Southeast 619 712 35,000 87 Level FlightAware ADS-B
Sun 05:47:16 AM 59.5820 3.1090 139° Southeast 619 712 35,100 83 Climbing FlightAware ADS-B
Sun 05:47:53 AM 59.4990 3.2530 139° Southeast 620 713 35,100 -80 Level FlightAware ADS-B
Sun 05:48:31 AM 59.4156 3.3981 139° Southeast 500 575 35,000 -158 Descending FlightAware UK
Sun 05:48:31 AM 59.4160 3.3940 139° Southeast 619 712 35,000 182 Level FlightAware ADS-B
Sun 05:49:04 AM 59.3470 3.5130 139° Southeast 617 710 35,100  Climbing FlightAware ADS-B
Sun 05:49:07 AM 59.3389 3.5311 139° Southeast 502 578 35,000  Descending FlightAware UK
Sun 05:49:39 AM 59.2700 3.6440 139° Southeast 616 709 35,100  Climbing FlightAware ADS-B
Sun 05:50:10 AM 59.2050 3.7540 139° Southeast 615 708 35,000  Descending FlightAware ADS-B
Sun 05:50:47 AM 59.1240 3.8900 139° Southeast 614 707 35,100  Climbing FlightAware ADS-B
Sun 05:51:19 AM 59.0529 4.0075 139° Southeast 500 575 35,000  Descending FlightAware UK
Sun 05:51:25 AM 59.0410 4.0270 139° Southeast 612 704 35,100  Climbing FlightAware ADS-B
Sun 05:51:55 AM 58.9761 4.1368 139° Southeast 496 571 35,000  Descending FlightAware UK
Sun 05:51:59 AM 58.9690 4.1480 139° Southeast 612 704 35,100  Climbing FlightAware ADS-B
Sun 05:52:31 AM 58.9000 4.2610 140° Southeast 612 704 35,000 -91 Descending FlightAware ADS-B
Sun 05:53:05 AM 58.8260 4.3810 140° Southeast 613 705 35,000  Level FlightAware ADS-B
Sun 05:53:13 AM 58.8084 4.4129 140° Southeast 494 568 35,000 176 Level FlightAware UK
Sun 05:53:39 AM 58.7520 4.5020 140° Southeast 612 704 35,100  Climbing FlightAware ADS-B
Sun 05:54:17 AM 58.6720 4.6320 140° Southeast 612 704 35,000  Descending FlightAware ADS-B
Sun 05:54:51 AM 58.5960 4.7540 140° Southeast 610 702 35,100  Climbing FlightAware ADS-B
Sun 05:55:29 AM 58.5160 4.8820 140° Southeast 608 700 35,000  Descending FlightAware ADS-B
Sun 05:56:02 AM 58.4470 4.9950 139° Southeast 605 696 35,100  Climbing FlightAware ADS-B
Sun 05:56:35 AM 58.3750 5.1110 140° Southeast 603 694 35,000  Descending FlightAware ADS-B
Sun 05:57:11 AM 58.2990 5.2360 139° Southeast 603 694 35,100 83 Climbing FlightAware ADS-B
Sun 05:57:47 AM 58.2230 5.3570 140° Southeast 602 693 35,100  Level FlightAware ADS-B
Sun 05:58:23 AM 58.1500 5.4750 140° Southeast 601 692 35,100  Level FlightAware ADS-B
Sun 05:58:56 AM 58.0770 5.5790 143° Southeast 604 695 35,100  Level FlightAware ADS-B
Sun 05:59:33 AM 57.9830 5.6730 152° Southeast 599 689 35,100  Level FlightAware ADS-B
Sun 06:00:10 AM 57.9030 5.7510 153° Southeast 599 689 35,100  Level FlightAware ADS-B
Sun 06:00:44 AM 57.8090 5.8470 151° Southeast 598 688 35,100 -88 Level FlightAware ADS-B
Sun 06:01:18 AM 57.7260 5.9330 151° Southeast 598 688 35,000  Descending FlightAware ADS-B
Sun 06:01:56 AM 57.6350 6.0280 151° Southeast 597 687 35,100  Climbing FlightAware ADS-B
Sun 06:02:32 AM 57.5480 6.1190 151° Southeast 597 687 35,000 -91 Descending FlightAware ADS-B
Sun 06:03:02 AM 57.4740 6.1950 151° Southeast 597 687 35,000  Level FlightAware ADS-B
Sun 06:03:41 AM 57.3830 6.2900 151° Southeast 597 687 35,000 83 Level FlightAware ADS-B
Sun 06:04:14 AM 57.3030 6.3730 151° Southeast 596 686 35,100 87 Climbing FlightAware ADS-B
Sun 06:04:50 AM 57.2150 6.4610 152° Southeast 595 685 35,100 -91 Level FlightAware ADS-B
Sun 06:05:20 AM 57.1480 6.5460 145° Southeast 592 681 35,000  Descending FlightAware ADS-B
Sun 06:05:55 AM 57.0750 6.6590 140° Southeast 589 678 35,100 82 Climbing FlightAware ADS-B
Sun 06:06:33 AM 57.0080 6.7620 140° Southeast 588 677 35,100  Level FlightAware ADS-B
Sun 06:07:09 AM 56.9190 6.8920 141° Southeast 586 674 35,100  Level FlightAware ADS-B
Sun 06:07:46 AM 56.8420 7.0060 141° Southeast 583 671 35,100  Level FlightAware ADS-B
Sun 06:08:21 AM 56.7700 7.1150 140° Southeast 581 669 35,100  Level FlightAware ADS-B
Sun 06:08:53 AM 56.7030 7.2160 140° Southeast 582 670 35,100  Level FlightAware ADS-B
Sun 06:09:29 AM 56.6300 7.3230 141° Southeast 581 669 35,100  Level FlightAware ADS-B
Sun 06:10:04 AM 56.5540 7.4330 141° Southeast 581 669 35,100  Level FlightAware ADS-B
Sun 06:10:37 AM 56.4850 7.5330 141° Southeast 581 669 35,100  Level FlightAware ADS-B
Sun 06:10:55 AM 56.4520 7.5810 141° Southeast 582 670 35,100  Level FlightAware ADS-B
Sun 06:11:39 AM 56.3540 7.7220 141° Southeast 582 670 35,100  Level FlightAware ADS-B
Sun 06:12:18 AM 56.2750 7.8370 141° Southeast 582 670 35,100  Level FlightAware ADS-B
Sun 06:12:53 AM 56.2000 7.9440 142° Southeast 582 670 35,100  Level FlightAware ADS-B
Sun 06:13:33 AM 56.1200 8.0580 142° Southeast 581 669 35,100  Level FlightAware ADS-B
Sun 06:14:03 AM 56.0590 8.1450 141° Southeast 580 667 35,100  Level FlightAware ADS-B
Sun 06:14:39 AM 55.9790 8.2570 142° Southeast 579 666 35,100  Level FlightAware ADS-B
Sun 06:15:15 AM 55.9040 8.3640 141° Southeast 579 666 35,100  Level FlightAware ADS-B
Sun 06:15:53 AM 55.8230 8.4770 142° Southeast 578 665 35,100  Level FlightAware ADS-B
Sun 06:16:19 AM 55.7680 8.5530 142° Southeast 578 665 35,100 -86 Level FlightAware ADS-B
Sun 06:17:03 AM 55.6770 8.6790 142° Southeast 578 665 35,000  Descending FlightAware ADS-B
Sun 06:17:37 AM 55.6050 8.7790 142° Southeast 577 664 35,100 98 Climbing FlightAware ADS-B
Sun 06:18:04 AM 55.5550 8.8480 142° Southeast 578 665 35,100  Level FlightAware ADS-B
Sun 06:18:52 AM 55.4470 8.9950 142° Southeast 577 664 35,100  Level FlightAware ADS-B
Sun 06:19:30 AM 55.3650 9.1070 142° Southeast 577 664 35,100  Level FlightAware ADS-B
Sun 06:20:08 AM 55.2900 9.2080 143° Southeast 577 664 35,100  Level FlightAware ADS-B
Sun 06:20:41 AM 55.2300 9.2880 143° Southeast 576 663 35,100  Level FlightAware ADS-B
Sun 06:21:18 AM 55.1370 9.4120 143° Southeast 576 663 35,100  Level FlightAware ADS-B
Sun 06:21:54 AM 55.0600 9.5150 143° Southeast 575 662 35,100  Level FlightAware ADS-B
Sun 06:22:28 AM 54.9970 9.5990 143° Southeast 576 663 35,100  Level FlightAware ADS-B
Sun 06:23:05 AM 54.9130 9.7100 143° Southeast 576 663 35,100  Level FlightAware ADS-B
Sun 06:23:38 AM 54.8420 9.8030 143° Southeast 576 663 35,100  Level FlightAware ADS-B
Sun 06:24:16 AM 54.7590 9.9100 143° Southeast 577 664 35,100 -88 Level FlightAware ADS-B
Sun 06:24:46 AM 54.6960 9.9930 143° Southeast 577 664 35,000  Descending FlightAware ADS-B
Sun 06:25:32 AM 54.6030 10.1130 143° Southeast 577 664 35,100 72 Climbing FlightAware ADS-B
Sun 06:26:09 AM 54.5200 10.2190 143° Southeast 576 663 35,100  Level FlightAware ADS-B
Sun 06:26:42 AM 54.4470 10.3120 143° Southeast 576 663 35,100  Level FlightAware ADS-B
Sun 06:27:15 AM 54.3820 10.3950 143° Southeast 576 663 35,100  Level FlightAware ADS-B
Sun 06:27:48 AM 54.3070 10.4900 144° Southeast 574 661 35,100 -85 Level FlightAware ADS-B
Sun 06:28:26 AM 54.2260 10.5920 144° Southeast 575 662 35,000  Descending FlightAware ADS-B
Sun 06:28:55 AM 54.1730 10.6590 143° Southeast 574 661 35,100 86 Climbing FlightAware ADS-B
Sun 06:29:36 AM 54.0780 10.7790 143° Southeast 573 659 35,100  Level FlightAware ADS-B
Sun 06:30:12 AM 54.0060 10.8680 144° Southeast 573 659 35,100 -90 Level FlightAware ADS-B
Sun 06:30:43 AM 53.9400 10.9500 144° Southeast 571 657 35,000  Descending FlightAware ADS-B
Sun 06:31:22 AM 53.8500 11.0610 144° Southeast 570 656 35,100 85 Climbing FlightAware ADS-B
Sun 06:31:54 AM 53.7820 11.1440 144° Southeast 569 655 35,100  Level FlightAware ADS-B
Sun 06:32:38 AM 53.6880 11.2590 144° Southeast 567 652 35,100  Level FlightAware ADS-B
Sun 06:33:10 AM 53.6210 11.3410 144° Southeast 565 650 35,100  Level FlightAware ADS-B
Sun 06:33:46 AM 53.5510 11.4260 144° Southeast 564 649 35,100  Level FlightAware ADS-B
Sun 06:34:26 AM 53.4710 11.5220 144° Southeast 561 646 35,100  Level FlightAware ADS-B
Sun 06:35:06 AM 53.3870 11.6220 145° Southeast 558 642 35,100  Level FlightAware ADS-B
Sun 06:35:39 AM 53.3090 11.7160 144° Southeast 556 640 35,100  Level FlightAware ADS-B
Sun 06:36:17 AM 53.2540 11.7810 145° Southeast 553 636 35,100  Level FlightAware ADS-B
Sun 06:36:51 AM 53.1600 11.8920 145° Southeast 549 632 35,100 -87 Level FlightAware ADS-B
Sun 06:37:26 AM 53.0870 11.9780 145° Southeast 546 628 35,000  Descending FlightAware ADS-B
Sun 06:38:00 AM 53.0180 12.0590 145° Southeast 543 625 35,100 90 Climbing FlightAware ADS-B
Sun 06:38:33 AM 52.9530 12.1350 145° Southeast 541 623 35,100 -83 Level FlightAware ADS-B
Sun 06:39:12 AM 52.8710 12.2310 145° Southeast 538 619 35,000  Descending FlightAware ADS-B
Sun 06:39:46 AM 52.8040 12.3080 145° Southeast 536 617 35,100  Climbing FlightAware ADS-B
Sun 06:40:17 AM 52.7380 12.3850 145° Southeast 535 616 35,000  Descending FlightAware ADS-B
Sun 06:40:52 AM 52.6690 12.4640 145° Southeast 534 615 35,100 83 Climbing FlightAware ADS-B
Sun 06:41:29 AM 52.5930 12.5510 145° Southeast 533 613 35,100  Level FlightAware ADS-B
Sun 06:42:06 AM 52.5180 12.6360 145° Southeast 533 613 35,100  Level FlightAware ADS-B
Sun 06:42:38 AM 52.4530 12.7110 145° Southeast 532 612 35,100  Level FlightAware ADS-B
Sun 06:43:13 AM 52.3790 12.7940 146° Southeast 532 612 35,100  Level FlightAware ADS-B
Sun 06:43:52 AM 52.3000 12.8830 145° Southeast 532 612 35,100  Level FlightAware ADS-B
Sun 06:44:25 AM 52.2340 12.9570 146° Southeast 531 611 35,100  Level FlightAware ADS-B
Sun 06:44:58 AM 52.1680 13.0310 145° Southeast 530 610 35,100  Level FlightAware ADS-B
Sun 06:45:38 AM 52.0930 13.1150 145° Southeast 531 611 35,100  Level FlightAware ADS-B
Sun 06:46:08 AM 52.0320 13.1820 146° Southeast 531 611 35,100  Level FlightAware ADS-B
Sun 06:46:47 AM 51.9490 13.2740 146° Southeast 531 611 35,100  Level FlightAware ADS-B
Sun 06:47:16 AM 51.8860 13.3430 146° Southeast 530 610 35,100  Level FlightAware ADS-B
Sun 06:47:50 AM 51.8200 13.4160 146° Southeast 530 610 35,100  Level FlightAware ADS-B
Sun 06:48:17 AM 51.7680 13.4730 146° Southeast 530 610 35,100  Level FlightAware ADS-B
Sun 06:48:54 AM 51.6940 13.5530 146° Southeast 529 609 35,100  Level FlightAware ADS-B
Sun 06:49:25 AM 51.6250 13.6280 146° Southeast 530 610 35,100  Level FlightAware ADS-B
Sun 06:50:00 AM 51.5590 13.7000 146° Southeast 528 608 35,100  Level FlightAware ADS-B
Sun 06:50:39 AM 51.4790 13.7850 146° Southeast 526 605 35,100  Level FlightAware ADS-B
Sun 06:51:22 AM 51.3910 13.8800 146° Southeast 525 604 35,100  Level FlightAware ADS-B
Sun 06:51:55 AM 51.3210 13.9540 147° Southeast 524 603 35,100  Level FlightAware ADS-B
Sun 06:52:32 AM 51.2510 14.0290 146° Southeast 522 601 35,100  Level FlightAware ADS-B
Sun 06:53:06 AM 51.1860 14.0980 146° Southeast 521 600 35,100  Level FlightAware ADS-B
Sun 06:53:39 AM 51.1160 14.1720 146° Southeast 519 597 35,100 -88 Level FlightAware ADS-B
Sun 06:54:14 AM 51.0500 14.2530 142° Southeast 519 597 35,000  Descending FlightAware ADS-B
Sun 06:54:46 AM 50.9910 14.3350 139° Southeast 517 595 35,100  Climbing FlightAware ADS-B
Sun 06:55:25 AM 50.9230 14.4320 138° Southeast 514 592 35,000 -82 Descending FlightAware ADS-B
Sun 06:55:59 AM 50.8660 14.5130 138° Southeast 513 590 35,000 87 Level FlightAware ADS-B
Sun 06:56:34 AM 50.8010 14.6030 139° Southeast 512 589 35,100 82 Climbing FlightAware ADS-B
Sun 06:57:12 AM 50.7330 14.6970 139° Southeast 512 589 35,100  Level FlightAware ADS-B
Sun 06:57:46 AM 50.6860 14.7630 138° Southeast 511 588 35,100 -90 Level FlightAware ADS-B
Sun 06:58:19 AM 50.6250 14.8470 139° Southeast 511 588 35,000  Descending FlightAware ADS-B
Sun 06:58:53 AM 50.5500 14.9500 139° Southeast 510 587 35,100 90 Climbing FlightAware ADS-B
Sun 06:59:26 AM 50.4940 15.0260 139° Southeast 509 586 35,100  Level FlightAware ADS-B
Sun 07:00:13 AM 50.4290 15.1150 139° Southeast 509 586 35,100  Level FlightAware ADS-B
Sun 07:00:54 AM 50.3370 15.2390 139° Southeast 506 582 35,100 -77 Level FlightAware ADS-B
Sun 07:01:31 AM 50.2730 15.3260 139° Southeast 504 580 35,000 -92 Descending FlightAware ADS-B
Sun 07:01:59 AM 50.2320 15.3810 139° Southeast 502 578 35,000 92 Level FlightAware ADS-B
Sun 07:02:36 AM 50.1550 15.4850 139° Southeast 500 575 35,100 81 Climbing FlightAware ADS-B
Sun 07:03:13 AM 50.0910 15.5700 140° Southeast 499 574 35,100 -86 Level FlightAware ADS-B
Sun 07:03:46 AM 50.0400 15.6380 139° Southeast 500 575 35,000  Descending FlightAware ADS-B
Sun 07:04:27 AM 49.9610 15.7440 139° Southeast 500 575 35,100 81 Climbing FlightAware ADS-B
Sun 07:05:00 AM 49.9040 15.8200 139° Southeast 502 578 35,100  Level FlightAware ADS-B
Sun 07:05:36 AM 49.8430 15.9000 140° Southeast 502 578 35,100  Level FlightAware ADS-B
Sun 07:06:15 AM 49.7750 15.9900 139° Southeast 504 580 35,100  Level FlightAware ADS-B
Sun 07:06:51 AM 49.7100 16.0740 140° Southeast 504 580 35,100  Level FlightAware ADS-B
Sun 07:07:23 AM 49.6510 16.1520 139° Southeast 504 580 35,100  Level FlightAware ADS-B
Sun 07:08:03 AM 49.5830 16.2390 140° Southeast 505 581 35,100  Level FlightAware ADS-B (KSBY)
Sun 07:08:33 AM 49.5240 16.3160 140° Southeast 507 583 35,100  Level FlightAware ADS-B (KSBY)
Sun 07:09:11 AM 49.4620 16.3960 140° Southeast 508 585 35,100 -86 Level FlightAware ADS-B (KSBY)
Sun 07:09:43 AM 49.4090 16.4650 140° Southeast 510 587 35,000  Descending FlightAware ADS-B (KSBY)
Sun 07:10:24 AM 49.3290 16.5680 140° Southeast 513 590 35,100 86 Climbing FlightAware ADS-B (KSBY)
Sun 07:10:53 AM 49.2720 16.6400 140° Southeast 513 590 35,100  Level FlightAware ADS-B (KSBY)
Sun 07:11:42 AM 49.1800 16.7570 140° Southeast 514 592 35,100  Level FlightAware ADS-B
Sun 07:12:14 AM 49.1340 16.8150 140° Southeast 516 594 35,100  Level FlightAware ADS-B
Sun 07:12:50 AM 49.0560 16.9120 141° Southeast 515 593 35,100  Level FlightAware ADS-B
Sun 07:13:23 AM 49.0240 16.9480 144° Southeast 515 593 35,100  Level FlightAware ADS-B
Sun 07:14:06 AM 48.9110 17.0700 145° Southeast 517 595 35,100  Level FlightAware ADS-B (KSBY)
Sun 07:14:39 AM 48.8530 17.1320 145° Southeast 517 595 35,100  Level FlightAware ADS-B (KSBY)
Sun 07:15:24 AM 48.7670 17.2270 144° Southeast 516 594 35,100  Level FlightAware ADS-B (KSBY)
Sun 07:16:01 AM 48.6850 17.3170 144° Southeast 514 592 35,100  Level FlightAware ADS-B (KSBY)
Sun 07:16:33 AM 48.6240 17.3840 144° Southeast 511 588 35,100  Level FlightAware ADS-B (KSBY)
Sun 07:17:09 AM 48.5570 17.4580 144° Southeast 509 586 35,100 583 Level FlightAware ADS-B (KSBY)
Sun 07:17:45 AM 48.4860 17.5350 144° Southeast 510 587 35,800 935 Climbing FlightAware ADS-B (KSBY)
Sun 07:18:26 AM 48.4250 17.6010 144° Southeast 510 587 36,300 923 Climbing FlightAware ADS-B (KSBY)
Sun 07:19:03 AM 48.3410 17.6910 145° Southeast 513 590 37,000 658 Climbing FlightAware ADS-B (KSBY)
Sun 07:19:39 AM 48.2670 17.7710 144° Southeast 513 590 37,100 92 Climbing FlightAware ADS-B (KSBY)
Sun 07:20:08 AM 48.2230 17.8180 145° Southeast 512 589 37,100  Level FlightAware ADS-B (KSBY)
Sun 07:20:47 AM 48.1370 17.9090 145° Southeast 511 588 37,100  Level FlightAware ADS-B (KSBY)
Sun 07:21:28 AM 48.0640 17.9870 144° Southeast 511 588 37,100  Level FlightAware ADS-B (KSBY)
Sun 07:22:03 AM 47.9930 18.0620 145° Southeast 510 587 37,100  Level FlightAware ADS-B (KSBY)
Sun 07:22:48 AM 47.9070 18.1520 145° Southeast 509 586 37,100  Level FlightAware ADS-B (KSBY)
Sun 07:23:18 AM 47.8460 18.2170 144° Southeast 510 587 37,100  Level FlightAware ADS-B
Sun 07:23:54 AM 47.7780 18.2850 146° Southeast 508 585 37,100  Level FlightAware ADS-B
Sun 07:24:29 AM 47.7160 18.3400 149° Southeast 505 581 37,100  Level FlightAware ADS-B
Sun 07:25:05 AM 47.6340 18.4140 149° Southeast 506 582 37,100  Level FlightAware ADS-B
Sun 07:25:42 AM 47.5630 18.4770 149° Southeast 507 583 37,100  Level FlightAware ADS-B
Sun 07:26:14 AM 47.5010 18.5340 148° Southeast 509 586 37,100  Level FlightAware ADS-B
Sun 07:26:56 AM 47.4230 18.6050 148° Southeast 510 587 37,100  Level FlightAware ADS-B
Sun 07:27:31 AM 47.3430 18.6780 148° Southeast 508 585 37,100  Level FlightAware ADS-B
Sun 07:28:02 AM 47.2920 18.7170 153° Southeast 499 574 37,100  Level FlightAware ADS-B
Sun 07:28:46 AM 47.1880 18.7910 154° Southeast 498 573 37,100  Level FlightAware ADS-B
Sun 07:29:19 AM 47.1160 18.8420 154° Southeast 498 573 37,100  Level FlightAware ADS-B
Sun 07:29:58 AM 47.0370 18.8980 154° Southeast 498 573 37,100  Level FlightAware ADS-B
Sun 07:30:34 AM 46.9650 18.9480 155° Southeast 498 573 37,100  Level FlightAware ADS-B
Sun 07:31:14 AM 46.8780 19.0080 155° Southeast 497 572 37,100 -81 Level FlightAware ADS-B
Sun 07:31:48 AM 46.8160 19.0520 154° Southeast 500 575 37,000 -94 Descending FlightAware ADS-B
Sun 07:32:18 AM 46.7610 19.1110 144° Southeast 510 587 37,000 92 Level FlightAware ADS-B
Sun 07:32:53 AM 46.6850 19.1930 143° Southeast 509 586 37,100 85 Climbing FlightAware ADS-B
Sun 07:33:29 AM 46.6180 19.2630 144° Southeast 508 585 37,100  Level FlightAware ADS-B
Sun 07:33:59 AM 46.5740 19.3090 144° Southeast 508 585 37,100  Level FlightAware ADS-B
Sun 07:34:37 AM 46.4870 19.3970 145° Southeast 508 585 37,100  Level FlightAware ADS-B
Sun 07:35:15 AM 46.4140 19.4690 146° Southeast 507 583 37,100  Level FlightAware ADS-B
Sun 07:35:48 AM 46.3490 19.5340 145° Southeast 507 583 37,100  Level FlightAware ADS-B
Sun 07:36:20 AM 46.2920 19.5910 145° Southeast 506 582 37,100  Level FlightAware ADS-B
Sun 07:37:06 AM 46.2010 19.6790 146° Southeast 497 572 37,100  Level FlightAware ADS-B
Sun 07:37:43 AM 46.1300 19.7360 151° Southeast 500 575 37,100  Level FlightAware ADS-B
Sun 07:38:31 AM 46.0260 19.8090 154° Southeast 500 575 37,100  Level FlightAware ADS-B
Sun 07:39:06 AM 45.9570 19.8580 154° Southeast 502 578 37,100  Level FlightAware ADS-B
Sun 07:39:34 AM 45.9040 19.8940 155° Southeast 502 578 37,100  Level FlightAware ADS-B
Sun 07:40:16 AM 45.8070 19.9620 154° Southeast 502 578 37,100  Level FlightAware ADS-B
Sun 07:40:57 AM 45.7210 20.0210 154° Southeast 501 577 37,100  Level FlightAware ADS-B
Sun 07:41:31 AM 45.6580 20.0650 154° Southeast 501 577 37,100  Level FlightAware ADS-B
Sun 07:42:05 AM 45.5970 20.1080 154° Southeast 501 577 37,100  Level FlightAware ADS-B
Sun 07:42:51 AM 45.4820 20.1870 154° Southeast 500 575 37,100  Level FlightAware ADS-B
Sun 07:43:22 AM 45.4130 20.2340 154° Southeast 500 575 37,100  Level FlightAware ADS-B
Sun 07:43:54 AM 45.3590 20.2710 154° Southeast 501 577 37,100  Level FlightAware ADS-B
Sun 07:44:33 AM 45.2840 20.3220 154° Southeast 501 577 37,100  Level FlightAware ADS-B
Sun 07:45:10 AM 45.1920 20.3850 154° Southeast 501 577 37,100  Level FlightAware ADS-B
Sun 07:45:44 AM 45.1260 20.4300 154° Southeast 502 578 37,100  Level FlightAware ADS-B
Sun 07:46:19 AM 45.0650 20.4710 155° Southeast 503 579 37,100  Level FlightAware ADS-B
Sun 07:46:54 AM 44.9800 20.5290 154° Southeast 496 571 37,100  Level FlightAware ADS-B
Sun 07:47:30 AM 44.9060 20.5790 154° Southeast 498 573 37,100  Level FlightAware ADS-B
Sun 07:48:05 AM 44.8260 20.6320 155° Southeast 506 582 37,100  Level FlightAware ADS-B
Sun 07:48:39 AM 44.7570 20.6780 155° Southeast 505 581 37,100  Level FlightAware ADS-B
Sun 07:49:20 AM 44.6640 20.7410 154° Southeast 507 583 37,100  Level FlightAware ADS-B
Sun 07:49:58 AM 44.5800 20.7960 155° Southeast 508 585 37,100  Level FlightAware ADS-B
Sun 07:50:31 AM 44.5140 20.8400 155° Southeast 507 583 37,100  Level FlightAware ADS-B
Sun 07:51:10 AM 44.4300 20.8960 155° Southeast 508 585 37,100  Level FlightAware ADS-B
Sun 07:51:42 AM 44.3600 20.9420 155° Southeast 508 585 37,100  Level FlightAware ADS-B
Sun 07:52:18 AM 44.3100 20.9750 155° Southeast 508 585 37,100  Level FlightAware ADS-B
Sun 07:52:48 AM 44.2270 21.0290 155° Southeast 508 585 37,100  Level FlightAware ADS-B
Sun 07:53:28 AM 44.1450 21.0830 155° Southeast 508 585 37,100  Level FlightAware ADS-B
Sun 07:54:02 AM 44.0640 21.1360 155° Southeast 508 585 37,100  Level FlightAware ADS-B
Sun 07:54:38 AM 44.0000 21.1780 155° Southeast 508 585 37,100  Level FlightAware ADS-B
Sun 07:55:14 AM 43.9090 21.2360 155° Southeast 507 583 37,100  Level FlightAware ADS-B
Sun 07:55:46 AM 43.8400 21.2810 155° Southeast 506 582 37,100  Level FlightAware ADS-B
Sun 07:56:24 AM 43.7590 21.3330 155° Southeast 507 583 37,100  Level FlightAware ADS-B
Sun 07:56:56 AM 43.6970 21.3730 155° Southeast 507 583 37,100  Level FlightAware ADS-B
Sun 07:57:31 AM 43.6200 21.4230 155° Southeast 508 585 37,100  Level FlightAware ADS-B
Sun 07:58:10 AM 43.5330 21.4780 155° Southeast 507 583 37,100  Level FlightAware ADS-B
Sun 07:58:40 AM 43.4730 21.5170 155° Southeast 506 582 37,100  Level FlightAware ADS-B
Sun 07:59:18 AM 43.3910 21.5680 156° South 505 581 37,100  Level FlightAware ADS-B
Sun 07:59:52 AM 43.3190 21.6140 155° Southeast 504 580 37,100  Level FlightAware ADS-B
Sun 08:00:28 AM 43.2410 21.6630 155° Southeast 504 580 37,100  Level FlightAware ADS-B
Sun 08:01:04 AM 43.1640 21.7120 155° Southeast 504 580 37,100  Level FlightAware ADS-B
Sun 08:01:33 AM 43.1090 21.7460 156° South 503 579 37,100  Level FlightAware ADS-B
Sun 08:02:14 AM 43.0260 21.7990 155° Southeast 504 580 37,100  Level FlightAware ADS-B
Sun 08:02:37 AM 42.9790 21.8280 156° South 503 579 37,100  Level FlightAware ADS-B
Sun 08:03:15 AM 42.8900 21.8840 155° Southeast 505 581 37,100  Level FlightAware ADS-B
Sun 08:03:52 AM 42.8080 21.9350 155° Southeast 505 581 37,100  Level FlightAware ADS-B
Sun 08:04:24 AM 42.7400 21.9770 156° South 505 581 37,100  Level FlightAware ADS-B
Sun 08:04:58 AM 42.6700 22.0210 155° Southeast 506 582 37,100  Level FlightAware ADS-B
Sun 08:05:34 AM 42.5920 22.0690 156° South 506 582 37,100  Level FlightAware ADS-B
Sun 08:06:10 AM 42.5130 22.1140 157° South 504 580 37,100  Level FlightAware ADS-B
Sun 08:06:47 AM 42.4330 22.1510 161° South 506 582 37,100  Level FlightAware ADS-B
Sun 08:07:22 AM 42.3530 22.1890 161° South 506 582 37,100  Level FlightAware ADS-B
Sun 08:07:56 AM 42.2790 22.2240 161° South 507 583 37,100  Level FlightAware ADS-B
Sun 08:08:28 AM 42.2080 22.2580 160° South 507 583 37,100  Level FlightAware ADS-B
Sun 08:09:06 AM 42.1270 22.2970 160° South 507 583 37,100  Level FlightAware ADS-B
Sun 08:09:38 AM 42.0570 22.3290 161° South 508 585 37,100  Level FlightAware ADS-B
Sun 08:10:15 AM 41.9730 22.3690 161° South 509 586 37,100  Level FlightAware ADS-B
Sun 08:10:51 AM 41.8970 22.4040 161° South 510 587 37,100  Level FlightAware ADS-B
Sun 08:11:24 AM 41.8400 22.4310 161° South 510 587 37,100  Level FlightAware ADS-B
Sun 08:12:00 AM 41.7410 22.4770 161° South 508 585 37,100  Level FlightAware ADS-B
Sun 08:12:34 AM 41.6630 22.5130 161° South 508 585 37,100 -77 Level FlightAware ADS-B
Sun 08:13:18 AM 41.5640 22.5590 161° South 506 582 37,000 -75 Descending FlightAware ADS-B
Sun 08:13:54 AM 41.4830 22.5960 161° South 505 581 37,000 87 Level FlightAware ADS-B
Sun 08:14:27 AM 41.4160 22.6260 161° South 505 581 37,100  Climbing FlightAware ADS-B
Sun 08:15:05 AM 41.3280 22.6670 161° South 505 581 37,000  Descending FlightAware ADS-B
Sun 08:15:39 AM 41.2610 22.6970 161° South 506 582 37,100 88 Climbing FlightAware ADS-B
Sun 08:16:13 AM 41.1950 22.7280 161° South 507 583 37,100  Level FlightAware ADS-B
Sun 08:16:46 AM 41.1010 22.7700 161° South 508 585 37,100 -83 Level FlightAware ADS-B
Sun 08:17:25 AM 41.0210 22.8090 160° South 514 592 37,000  Descending FlightAware ADS-B
Sun 08:18:00 AM 40.9430 22.8660 151° Southeast 520 598 37,100 92 Climbing FlightAware ADS-B
Sun 08:18:30 AM 40.8800 22.9140 150° Southeast 521 600 37,100  Level FlightAware ADS-B
Sun 08:19:05 AM 40.8070 22.9660 152° Southeast 523 602 37,100  Level FlightAware ADS-B
Sun 08:19:44 AM 40.7240 23.0240 152° Southeast 523 602 37,100  Level FlightAware ADS-B
Sun 08:20:15 AM 40.6700 23.0610 153° Southeast 522 601 37,100  Level FlightAware ADS-B
Sun 08:21:01 AM 40.5670 23.1310 153° Southeast 520 598 37,100  Level FlightAware ADS-B
Sun 08:21:34 AM 40.4910 23.1830 153° Southeast 511 588 37,100  Level FlightAware ADS-B
Sun 08:22:05 AM 40.4280 23.2270 152° Southeast 510 587 37,100  Level FlightAware ADS-B
Sun 08:22:46 AM 40.3340 23.2940 151° Southeast 514 592 37,100  Level FlightAware ADS-B
Sun 08:23:15 AM 40.2800 23.3330 151° Southeast 512 589 37,100 -87 Level FlightAware ADS-B
Sun 08:23:55 AM 40.1970 23.3920 151° Southeast 511 588 37,000  Descending FlightAware ADS-B
Sun 08:24:28 AM 40.1230 23.4450 151° Southeast 511 588 37,100  Climbing FlightAware ADS-B
Sun 08:25:02 AM 40.0620 23.4880 152° Southeast 510 587 37,000  Descending FlightAware ADS-B
Sun 08:25:43 AM 39.9680 23.5530 152° Southeast 511 588 37,100 75 Climbing FlightAware ADS-B
Sun 08:26:22 AM 39.8960 23.6040 151° Southeast 511 588 37,100 -81 Level FlightAware ADS-B
Sun 08:26:57 AM 39.8220 23.6550 152° Southeast 512 589 37,000  Descending FlightAware ADS-B
Sun 08:27:29 AM 39.7490 23.7060 152° Southeast 515 593 37,100 87 Climbing FlightAware ADS-B
Sun 08:28:06 AM 39.6750 23.7580 152° Southeast 510 587 37,100  Level FlightAware ADS-B
Sun 08:28:48 AM 39.5800 23.8240 152° Southeast 510 587 37,100  Level FlightAware ADS-B
Sun 08:29:23 AM 39.5060 23.8750 152° Southeast 510 587 37,100 -86 Level FlightAware ADS-B
Sun 08:29:58 AM 39.4330 23.9250 152° Southeast 514 592 37,000  Descending FlightAware ADS-B
Sun 08:30:33 AM 39.3590 23.9770 151° Southeast 514 592 37,100 85 Climbing FlightAware ADS-B
Sun 08:31:09 AM 39.2870 24.0260 152° Southeast 513 590 37,100  Level FlightAware ADS-B
Sun 08:31:41 AM 39.2150 24.0750 152° Southeast 511 588 37,100  Level FlightAware ADS-B
Sun 08:32:20 AM 39.1400 24.1260 152° Southeast 509 586 37,100  Level FlightAware ADS-B
Sun 08:32:51 AM 39.0700 24.1750 151° Southeast 510 587 37,100  Level FlightAware ADS-B
Sun 08:33:48 AM 38.9720 24.2410 152° Southeast 509 586 37,100  Level FlightAware ADS-B
Sun 08:34:19 AM 38.8880 24.2980 152° Southeast 509 586 37,100  Level FlightAware ADS-B
Sun 08:35:01 AM 38.7970 24.3590 152° Southeast 512 589 37,100 -79 Level FlightAware ADS-B
Sun 08:35:35 AM 38.7260 24.4070 152° Southeast 513 590 37,000  Descending FlightAware ADS-B
Sun 08:36:16 AM 38.6470 24.4600 152° Southeast 513 590 37,100 71 Climbing FlightAware ADS-B
Sun 08:37:00 AM 38.5510 24.5250 152° Southeast 512 589 37,100  Level FlightAware ADS-B
Sun 08:37:35 AM 38.4750 24.5760 152° Southeast 511 588 37,100  Level FlightAware ADS-B
Sun 08:38:10 AM 38.4010 24.6250 153° Southeast 511 588 37,100 -90 Level FlightAware ADS-B
Sun 08:38:42 AM 38.3380 24.6680 152° Southeast 513 590 37,000  Descending FlightAware ADS-B
Sun 08:39:18 AM 38.2640 24.7360 144° Southeast 530 610 37,100 85 Climbing FlightAware ADS-B
Sun 08:39:53 AM 38.2060 24.8230 130° Southeast 547 629 37,100  Level FlightAware ADS-B
Sun 08:40:28 AM 38.1660 24.9070 121° Southeast 551 634 37,100  Level FlightAware ADS-B
Sun 08:41:05 AM 38.1200 25.0080 120° Southeast 553 636 37,100  Level FlightAware ADS-B
Sun 08:41:33 AM 38.0770 25.1010 120° Southeast 554 638 37,100  Level FlightAware ADS-B
Sun 08:42:14 AM 38.0270 25.2030 122° Southeast 553 636 37,100 -78 Level FlightAware ADS-B
Sun 08:42:50 AM 37.9720 25.3040 125° Southeast 552 635 37,000  Descending FlightAware ADS-B
Sun 08:43:24 AM 37.9300 25.3810 125° Southeast 553 636 37,100 97 Climbing FlightAware ADS-B
Sun 08:43:52 AM 37.8820 25.4670 125° Southeast 555 639 37,100  Level FlightAware ADS-B
Sun 08:44:34 AM 37.8180 25.5850 124° Southeast 554 638 37,100  Level FlightAware ADS-B
Sun 08:45:06 AM 37.7700 25.6680 126° Southeast 554 638 37,100  Level FlightAware ADS-B
Sun 08:45:42 AM 37.7190 25.7600 125° Southeast 553 636 37,100  Level FlightAware ADS-B
Sun 08:46:23 AM 37.6570 25.8710 125° Southeast 552 635 37,100  Level FlightAware ADS-B
Sun 08:46:56 AM 37.6150 25.9460 125° Southeast 553 636 37,100  Level FlightAware ADS-B
Sun 08:47:31 AM 37.5570 26.0500 125° Southeast 553 636 37,100  Level FlightAware ADS-B
Sun 08:48:05 AM 37.5060 26.1390 126° Southeast 551 634 37,100  Level FlightAware ADS-B
Sun 08:48:35 AM 37.4710 26.2020 125° Southeast 551 634 37,100  Level FlightAware ADS-B
Sun 08:49:11 AM 37.4090 26.3110 126° Southeast 550 633 37,100  Level FlightAware ADS-B
Sun 08:49:45 AM 37.3570 26.4020 126° Southeast 551 634 37,100  Level FlightAware ADS-B
Sun 08:50:23 AM 37.3120 26.4820 125° Southeast 550 633 37,100  Level FlightAware ADS-B
Sun 08:50:57 AM 37.2520 26.5880 125° Southeast 548 631 37,100  Level FlightAware ADS-B
Sun 08:51:37 AM 37.1940 26.6880 126° Southeast 547 629 37,100  Level FlightAware ADS-B
Sun 08:52:12 AM 37.1430 26.7780 125° Southeast 546 628 37,100  Level FlightAware ADS-B
Sun 08:52:40 AM 37.1070 26.8400 126° Southeast 545 627 37,100  Level FlightAware ADS-B
Sun 08:53:15 AM 37.0470 26.9440 126° Southeast 545 627 37,100  Level FlightAware ADS-B
Sun 08:53:55 AM 36.9890 27.0440 126° Southeast 543 625 37,100  Level FlightAware ADS-B
Sun 08:54:30 AM 36.9360 27.1350 126° Southeast 543 625 37,100  Level FlightAware ADS-B
Sun 08:55:06 AM 36.8840 27.2250 126° Southeast 543 625 37,100  Level FlightAware ADS-B
Sun 08:55:58 AM 36.8140 27.3470 126° Southeast 543 625 37,100  Level FlightAware ADS-B
Sun 08:56:39 AM 36.7640 27.4370 125° Southeast 543 625 37,100  Level FlightAware ADS-B
Sun 08:57:10 AM 36.7000 27.5390 128° Southeast 541 623 37,100  Level FlightAware ADS-B
Sun 08:57:41 AM 36.6610 27.6060 126° Southeast 541 623 37,100 -80 Level FlightAware ADS-B
Sun 08:58:25 AM 36.6020 27.7060 126° Southeast 538 619 37,000  Descending FlightAware ADS-B
Sun 08:59:01 AM 36.5380 27.8140 126° Southeast 540 621 37,100 78 Climbing FlightAware ADS-B
Sun 08:59:42 AM 36.4770 27.9170 126° Southeast 539 620 37,100  Level FlightAware ADS-B
Sun 09:00:17 AM 36.4240 28.0070 126° Southeast 538 619 37,100  Level FlightAware ADS-B
Sun 09:00:53 AM 36.3790 28.0810 127° Southeast 537 618 37,100  Level FlightAware ADS-B
Sun 09:01:28 AM 36.3290 28.1640 127° Southeast 535 616 37,100  Level FlightAware ADS-B
Sun 09:02:02 AM 36.2710 28.2620 126° Southeast 529 609 37,100  Level FlightAware ADS-B
Sun 09:02:37 AM 36.2220 28.3430 127° Southeast 527 606 37,100  Level FlightAware ADS-B
Sun 09:03:14 AM 36.1740 28.4230 127° Southeast 524 603 37,100  Level FlightAware ADS-B
Sun 09:03:46 AM 36.1220 28.5090 127° Southeast 524 603 37,100  Level FlightAware ADS-B
Sun 09:04:23 AM 36.0620 28.6080 127° Southeast 528 608 37,100  Level FlightAware ADS-B
Sun 09:04:58 AM 36.0180 28.6800 127° Southeast 529 609 37,100  Level FlightAware ADS-B
Sun 09:05:36 AM 35.9550 28.7840 127° Southeast 530 610 37,100  Level FlightAware ADS-B
Sun 09:06:16 AM 35.9040 28.8690 127° Southeast 530 610 37,100  Level FlightAware ADS-B
Sun 09:06:56 AM 35.8400 28.9720 127° Southeast 532 612 37,100  Level FlightAware ADS-B
Sun 09:07:38 AM 35.7850 29.0650 126° Southeast 532 612 37,100  Level FlightAware ADS-B
Sun 09:08:14 AM 35.7300 29.1510 128° Southeast 532 612 37,100  Level FlightAware ADS-B
Sun 09:08:46 AM 35.6760 29.2390 127° Southeast 532 612 37,100  Level FlightAware ADS-B
Sun 09:09:20 AM 35.6250 29.3200 128° Southeast 532 612 37,100 -76 Level FlightAware ADS-B
Sun 09:10:05 AM 35.5590 29.4270 127° Southeast 531 611 37,000  Descending FlightAware ADS-B
Sun 09:10:43 AM 35.5090 29.5070 128° Southeast 533 613 37,100 72 Climbing FlightAware ADS-B
Sun 09:11:28 AM 35.4430 29.6140 127° Southeast 534 615 37,100  Level FlightAware ADS-B
Sun 09:12:10 AM 35.3780 29.7170 128° Southeast 535 616 37,100  Level FlightAware ADS-B
Sun 09:12:42 AM 35.3230 29.8060 127° Southeast 535 616 37,100  Level FlightAware ADS-B
Sun 09:13:41 AM 35.2480 29.9260 127° Southeast 535 616 37,100  Level FlightAware ADS-B
Sun 09:14:12 AM 35.1920 30.0130 128° Southeast 534 615 37,100  Level FlightAware ADS-B
Sun 09:14:47 AM 35.1310 30.1070 128° Southeast 527 606 37,100  Level FlightAware ADS-B
Sun 09:15:29 AM 35.0760 30.1900 129° Southeast 524 603 37,100  Level FlightAware ADS-B
Sun 09:16:00 AM 35.0240 30.2730 127° Southeast 525 604 37,100  Level FlightAware ADS-B
Sun 09:16:38 AM 34.9640 30.3710 127° Southeast 524 603 37,100  Level FlightAware ADS-B
Sun 09:17:16 AM 34.9130 30.4540 127° Southeast 523 602 37,100  Level FlightAware ADS-B
Sun 09:17:44 AM 34.8690 30.5240 127° Southeast 523 602 37,100  Level FlightAware ADS-B
Sun 09:18:24 AM 34.8090 30.6210 127° Southeast 522 601 37,100  Level FlightAware ADS-B
Sun 09:18:57 AM 34.7710 30.6820 127° Southeast 521 600 37,100  Level FlightAware ADS-B
Sun 09:19:39 AM 34.7040 30.7890 127° Southeast 520 598 37,100  Level FlightAware ADS-B
Sun 09:20:13 AM 34.6480 30.8780 127° Southeast 525 604 37,100  Level FlightAware ADS-B
Sun 09:20:53 AM 34.5890 30.9720 127° Southeast 526 605 37,100  Level FlightAware ADS-B
Sun 09:21:23 AM 34.5430 31.0440 128° Southeast 526 605 37,100  Level FlightAware ADS-B
Sun 09:21:58 AM 34.4960 31.1190 127° Southeast 527 606 37,100  Level FlightAware ADS-B
Sun 09:22:33 AM 34.4400 31.2070 128° Southeast 525 604 37,100  Level FlightAware ADS-B
Sun 09:23:08 AM 34.3880 31.2880 128° Southeast 525 604 37,100  Level FlightAware ADS-B
Sun 09:23:45 AM 34.3360 31.3700 128° Southeast 524 603 37,100  Level FlightAware ADS-B
Sun 09:24:19 AM 34.2830 31.4530 128° Southeast 524 603 37,100  Level FlightAware ADS-B
Sun 09:24:52 AM 34.2450 31.5120 128° Southeast 524 603 37,100  Level FlightAware ADS-B
Sun 09:25:25 AM 34.1840 31.6080 128° Southeast 523 602 37,100  Level FlightAware ADS-B
Sun 09:26:01 AM 34.1320 31.6890 128° Southeast 523 602 37,100  Level FlightAware ADS-B
Sun 09:26:42 AM 34.0710 31.7830 128° Southeast 523 602 37,100  Level FlightAware ADS-B
Sun 09:27:11 AM 34.0280 31.8500 128° Southeast 523 602 37,100  Level FlightAware ADS-B
Sun 09:27:51 AM 33.9690 31.9410 128° Southeast 523 602 37,100  Level FlightAware ADS-B
Sun 09:28:22 AM 33.9370 31.9900 128° Southeast 523 602 37,100  Level FlightAware ADS-B
Sun 09:29:06 AM 33.8600 32.1090 128° Southeast 523 602 37,100  Level FlightAware ADS-B
Sun 09:29:37 AM 33.8110 32.1840 128° Southeast 522 601 37,100  Level FlightAware ADS-B
Sun 09:30:18 AM 33.7600 32.2620 128° Southeast 522 601 37,100  Level FlightAware ADS-B
Sun 09:30:52 AM 33.7100 32.3390 128° Southeast 522 601 37,100  Level FlightAware ADS-B
Sun 09:31:27 AM 33.6460 32.4350 129° Southeast 521 600 37,100  Level FlightAware ADS-B
Sun 09:32:04 AM 33.5920 32.5180 128° Southeast 521 600 37,100 -209 Level FlightAware ADS-B
Sun 09:32:53 AM 33.5220 32.6230 129° Southeast 520 598 36,800 -835 Descending FlightAware ADS-B
Sun 09:33:23 AM 33.4780 32.6900 128° Southeast 522 601 36,000 -1,182 Descending FlightAware ADS-B
Sun 09:33:59 AM 33.4280 32.7650 129° Southeast 520 598 35,500 -870 Descending FlightAware ADS-B
Sun 09:34:32 AM 33.3830 32.8340 128° Southeast 517 595 35,000 -1,680 Descending FlightAware ADS-B
Sun 09:35:14 AM 33.3140 32.9380 128° Southeast 512 589 33,400 -2,475 Descending FlightAware ADS-B
Sun 09:35:52 AM 33.2510 33.0320 129° Southeast 498 573 31,700 -2,417 Descending FlightAware ADS-B
Sun 09:36:26 AM 33.2030 33.1040 129° Southeast 492 566 30,500 -2,270 Descending FlightAware ADS-B
Sun 09:37:06 AM 33.1460 33.1880 129° Southeast 485 558 28,900 -2,301 Descending FlightAware ADS-B
Sun 09:37:39 AM 33.1010 33.2560 128° Southeast 476 548 27,700 -1,969 Descending FlightAware ADS-B
Sun 09:38:10 AM 33.0660 33.3070 129° Southeast 468 539 26,800 -2,091 Descending FlightAware ADS-B
Sun 09:38:45 AM 33.0180 33.3740 131° Southeast 456 525 25,400 -2,250 Descending FlightAware ADS-B
Sun 09:39:22 AM 32.9640 33.4490 131° Southeast 445 512 24,100 -2,053 Descending FlightAware ADS-B
Sun 09:40:01 AM 32.9080 33.5270 131° Southeast 428 493 22,800 -1,917 Descending FlightAware ADS-B
Sun 09:40:34 AM 32.8650 33.5860 131° Southeast 420 483 21,800 -1,714 Descending FlightAware ADS-B
Sun 09:41:11 AM 32.8230 33.6450 130° Southeast 424 488 20,800 -1,765 Descending FlightAware ADS-B
Sun 09:41:42 AM 32.7810 33.7040 130° Southeast 421 484 19,800 -1,859 Descending FlightAware ADS-B
Sun 09:42:22 AM 32.7310 33.7730 131° Southeast 401 461 18,600 -1,676 Descending FlightAware ADS-B
Sun 09:42:50 AM 32.7010 33.8150 130° Southeast 391 450 17,900 -1,619 Descending FlightAware ADS-B
Sun 09:43:25 AM 32.6560 33.8770 131° Southeast 380 437 16,900 -1,714 Descending FlightAware ADS-B
Sun 09:44:00 AM 32.6150 33.9340 130° Southeast 389 448 15,900 -1,590 Descending FlightAware ADS-B
Sun 09:44:48 AM 32.5600 34.0090 131° Southeast 385 443 14,700 -1,562 Descending FlightAware ADS-B
Sun 09:45:13 AM 32.5330 34.0460 131° Southeast 381 438 14,000 -1,612 Descending FlightAware ADS-B
Sun 09:45:55 AM 32.4870 34.1100 130° Southeast 367 422 12,900 -1,519 Descending FlightAware ADS-B
Sun 09:46:32 AM 32.4440 34.1680 131° Southeast 350 403 12,000 -1,292 Descending FlightAware ADS-B
Sun 09:47:00 AM 32.4260 34.1930 130° Southeast 345 397 11,500 -395 Descending FlightAware ADS-B
Sun 09:47:48 AM 32.3840 34.2520 130° Southeast 345 397 11,500  Level FlightAware ADS-B
Sun 09:48:21 AM 32.3560 34.2930 129° Southeast 345 397 11,500  Level FlightAware ADS-B
Sun 09:48:56 AM 32.3250 34.3360 130° Southeast 345 397 11,500 -1,500 Level FlightAware ADS-B
Sun 09:49:37 AM 32.2830 34.3900 133° Southeast 279 321 9,600 -1,676 Descending FlightAware ADS-B
Sun 09:50:04 AM 32.2630 34.4170 131° Southeast 279 321 9,600  Level FlightAware ADS-B
Sun 09:50:22 AM 32.2510 34.4350 128° Southeast 279 321 9,600  Level FlightAware ADS-B
Sun 09:50:49 AM 32.2320 34.4610 131° Southeast 279 321 9,600 -1,862 Level FlightAware ADS-B
Sun 09:52:47 AM 32.1410 34.6310 122° Southeast 265 305 5,100 -1,776 Descending FlightAware ADS-B
Sun 09:53:21 AM 32.1180 34.6730 123° Southeast 263 303 5,100  Level FlightAware ADS-B
Sun 09:53:32 AM 32.1090 34.6890 124° Southeast 266 306 5,100  Level FlightAware ADS-B
Sun 09:53:57 AM 32.0950 34.7140 123° Southeast 262 302 5,100  Level FlightAware ADS-B
Sun 09:54:28 AM 32.0780 34.7450 123° Southeast 250 288 5,100 95 Level FlightAware ADS-B
Sun 09:55:00 AM 32.0570 34.7840 122° Southeast 243 280 5,200 -237 Climbing FlightAware ADS-B
Sun 09:55:44 AM 32.0270 34.8130 141° Southeast 223 257 4,800 -348 Descending FlightAware ADS-B
Sun 09:56:09 AM 32.0120 34.8310 134° Southeast 223 257 4,800  Level FlightAware ADS-B
Sun 09:58:00 AM 32.0000 34.8667 148° Southeast  Level FlightAware Approximate
Sun 09:59:00 AM 32.0095 34.8769 148° Southeast  Level Estimated
Sun 10:00:00 AM 32.0095 34.8769 148° Southeast  Level Estimated
Sun 10:01:00 AM 32.0095 34.8769 148° Southeast  Level Estimated

Login

Don't have an account? Register now (free) for customized features, flight alerts, and more!